AIC131 VABB-EGLL
Flight info
| Callsign | AIC131 |
|---|---|
| Flight time | N/A |
| Altitude | 34000 |
| Route | RAXET2A BISET P751 LEGEN N563 REXOD L883 UMILA N569 TOKRA DCT MEDPO DCT BOSOB DCT ITRUX Y511 PMA Z712 SIGRO/N0501F360 Z712 WEJ L677 CVO L617 TANSA UL613 KOR/N0481F380 UL613 YNN UL611 TUMBO DCT RODON DCT VAKSU DCT ROTAR DCT SAFFA DCT ELMUR DCT RIPUS DCT DITON DCT HOC DCT LUL DCT RLP DCT ROTSI DCT KOTUN DCT NINAL DCT ABNUR DCT DIMAL DCT ALESO ALESO1H |
| Aircraft | B77W/H-SDE1E2E3FGHIJ2J3J4J5M1RWXY/LB1D1 |
Departure
| Time | 2026-04-28 18:56 |
|---|---|
| Airport | Chhatrapati Shivaji Maharaj International Airport (VABB) |
Arrival
| Time | N/A |
|---|---|
| Airport | London Heathrow Airport (EGLL) |
| Time | Latitude | Longitude | Altitude | Speed | Heading |
|---|---|---|---|---|---|
| 2026-04-28 18:32 | 19.09339 | 72.87038 | 30 ft | 0 kts | 60° |
| 2026-04-28 18:48 | 19.09338 | 72.87037 | 30 ft | 1 kts | 60° |
| 2026-04-28 18:48 | 19.09331 | 72.87024 | 201 ft | 3 kts | 58° |
| 2026-04-28 18:48 | 19.09321 | 72.87006 | 29 ft | 3 kts | 65° |
| 2026-04-28 18:48 | 19.09314 | 72.86987 | 30 ft | 3 kts | 82° |
| 2026-04-28 18:49 | 19.09312 | 72.86967 | 29 ft | 3 kts | 89° |
| 2026-04-28 18:49 | 19.09312 | 72.86954 | 30 ft | 3 kts | 99° |
| 2026-04-28 18:49 | 19.09319 | 72.86931 | 28 ft | 3 kts | 128° |
| 2026-04-28 18:49 | 19.09325 | 72.86923 | 28 ft | 0 kts | 136° |
| 2026-04-28 18:51 | 19.09324 | 72.86924 | 28 ft | 1 kts | 136° |
| 2026-04-28 18:51 | 19.09286 | 72.86963 | 30 ft | 14 kts | 136° |
| 2026-04-28 18:52 | 19.09232 | 72.87045 | 30 ft | 14 kts | 116° |
| 2026-04-28 18:52 | 19.09158 | 72.87090 | 30 ft | 12 kts | 149° |
| 2026-04-28 18:52 | 19.09132 | 72.87171 | 30 ft | 12 kts | 89° |
| 2026-04-28 18:52 | 19.09119 | 72.87254 | 30 ft | 12 kts | 138° |
| 2026-04-28 18:53 | 19.09055 | 72.87300 | 30 ft | 12 kts | 115° |
| 2026-04-28 18:53 | 19.09049 | 72.87384 | 30 ft | 12 kts | 89° |
| 2026-04-28 18:53 | 19.09049 | 72.87472 | 30 ft | 12 kts | 88° |
| 2026-04-28 18:53 | 19.09052 | 72.87577 | 30 ft | 16 kts | 89° |
| 2026-04-28 18:54 | 19.09053 | 72.87698 | 30 ft | 16 kts | 89° |
| 2026-04-28 18:54 | 19.09054 | 72.87818 | 29 ft | 16 kts | 89° |
| 2026-04-28 18:54 | 19.09056 | 72.87938 | 29 ft | 16 kts | 89° |
| 2026-04-28 18:54 | 19.09046 | 72.88039 | 29 ft | 11 kts | 131° |
| 2026-04-28 18:55 | 19.08971 | 72.88051 | 28 ft | 11 kts | 174° |
| 2026-04-28 18:55 | 19.08918 | 72.88046 | 28 ft | 12 kts | 200° |
| 2026-04-28 18:55 | 19.08886 | 72.87898 | 29 ft | 33 kts | 268° |
| 2026-04-28 18:55 | 19.08880 | 72.87399 | 31 ft | 104 kts | 269° |
| 2026-04-28 18:56 | 19.08866 | 72.86401 | 29 ft | 166 kts | 269° |
| 2026-04-28 18:56 | 19.08843 | 72.85055 | 309 ft | 187 kts | 268° |
| 2026-04-28 18:56 | 19.08811 | 72.83657 | 874 ft | 194 kts | 268° |
| 2026-04-28 18:56 | 19.08790 | 72.82223 | 1455 ft | 196 kts | 270° |
| 2026-04-28 18:57 | 19.08783 | 72.80753 | 1849 ft | 210 kts | 270° |
| 2026-04-28 18:57 | 19.08766 | 72.79132 | 2006 ft | 230 kts | 269° |
| 2026-04-28 18:57 | 19.08749 | 72.77981 | 2121 ft | 244 kts | 269° |
| 2026-04-28 18:57 | 19.08745 | 72.77695 | 2156 ft | 247 kts | 269° |
| 2026-04-28 18:58 | 19.08731 | 72.76853 | 2360 ft | 251 kts | 269° |
| 2026-04-28 18:58 | 19.08701 | 72.74974 | 2863 ft | 258 kts | 270° |
| 2026-04-28 18:58 | 19.08849 | 72.73072 | 3329 ft | 263 kts | 279° |
| 2026-04-28 18:58 | 19.09089 | 72.71148 | 3926 ft | 265 kts | 278° |
| 2026-04-28 18:59 | 19.09311 | 72.69238 | 4559 ft | 266 kts | 279° |
| 2026-04-28 18:59 | 19.09532 | 72.67286 | 5156 ft | 268 kts | 278° |
| 2026-04-28 18:59 | 19.09750 | 72.65322 | 5767 ft | 270 kts | 278° |
| 2026-04-28 18:59 | 19.09968 | 72.63348 | 6381 ft | 271 kts | 278° |
| 2026-04-28 19:00 | 19.10185 | 72.61360 | 6929 ft | 274 kts | 277° |
| 2026-04-28 19:00 | 19.10404 | 72.59345 | 7462 ft | 277 kts | 277° |
| 2026-04-28 19:00 | 19.10624 | 72.57309 | 8008 ft | 280 kts | 276° |
| 2026-04-28 19:00 | 19.10845 | 72.55251 | 8561 ft | 283 kts | 276° |
| 2026-04-28 19:01 | 19.11069 | 72.53172 | 9109 ft | 286 kts | 275° |
| 2026-04-28 19:01 | 19.11294 | 72.51070 | 9645 ft | 289 kts | 275° |
| 2026-04-28 19:01 | 19.11521 | 72.48946 | 10152 ft | 292 kts | 275° |
| 2026-04-28 19:01 | 19.11754 | 72.46761 | 10399 ft | 308 kts | 275° |
| 2026-04-28 19:02 | 19.12001 | 72.44436 | 10543 ft | 328 kts | 275° |
| 2026-04-28 19:02 | 19.12259 | 72.42002 | 10686 ft | 347 kts | 275° |
| 2026-04-28 19:02 | 19.12536 | 72.39396 | 10836 ft | 365 kts | 275° |
| 2026-04-28 19:02 | 19.12824 | 72.36692 | 11227 ft | 375 kts | 276° |
| 2026-04-28 19:03 | 19.13118 | 72.33927 | 11768 ft | 382 kts | 276° |
| 2026-04-28 19:03 | 19.13415 | 72.31130 | 12493 ft | 384 kts | 276° |
| 2026-04-28 19:03 | 19.13715 | 72.28306 | 13139 ft | 389 kts | 276° |
| 2026-04-28 19:03 | 19.14017 | 72.25450 | 13774 ft | 392 kts | 276° |
| 2026-04-28 19:04 | 19.14321 | 72.22573 | 14371 ft | 396 kts | 276° |
| 2026-04-28 19:04 | 19.14629 | 72.19650 | 14872 ft | 401 kts | 277° |
| 2026-04-28 19:04 | 19.14939 | 72.16702 | 15459 ft | 405 kts | 277° |
| 2026-04-28 19:04 | 19.15253 | 72.13718 | 15999 ft | 410 kts | 277° |
| 2026-04-28 19:05 | 19.15550 | 72.10703 | 16499 ft | 412 kts | 274° |
| 2026-04-28 19:05 | 19.15317 | 72.07699 | 16858 ft | 419 kts | 256° |
| 2026-04-28 19:05 | 19.14496 | 72.04724 | 17264 ft | 424 kts | 254° |
| 2026-04-28 19:05 | 19.13637 | 72.01712 | 17791 ft | 428 kts | 254° |
| 2026-04-28 19:06 | 19.12781 | 71.98676 | 18342 ft | 431 kts | 255° |
| 2026-04-28 19:06 | 19.12219 | 71.96659 | 18680 ft | 432 kts | 255° |
| 2026-04-28 19:06 | 19.11095 | 71.92561 | 19443 ft | 433 kts | 255° |
| 2026-04-28 19:06 | 19.10276 | 71.89533 | 19999 ft | 435 kts | 255° |
| 2026-04-28 19:07 | 19.09448 | 71.86452 | 20526 ft | 436 kts | 255° |
| 2026-04-28 19:07 | 19.08618 | 71.83354 | 21026 ft | 439 kts | 255° |
| 2026-04-28 19:07 | 19.07786 | 71.80244 | 21532 ft | 441 kts | 255° |
| 2026-04-28 19:07 | 19.06949 | 71.77115 | 22030 ft | 444 kts | 255° |
| 2026-04-28 19:08 | 19.06107 | 71.73970 | 22511 ft | 446 kts | 255° |
| 2026-04-28 19:08 | 19.05260 | 71.70807 | 23000 ft | 448 kts | 255° |
| 2026-04-28 19:08 | 19.04407 | 71.67628 | 23463 ft | 451 kts | 255° |
| 2026-04-28 19:08 | 19.03550 | 71.64437 | 23851 ft | 452 kts | 255° |
| 2026-04-28 19:09 | 19.02687 | 71.61229 | 24247 ft | 454 kts | 255° |
| 2026-04-28 19:09 | 19.01822 | 71.58012 | 24645 ft | 456 kts | 255° |
| 2026-04-28 19:09 | 19.00955 | 71.54793 | 25118 ft | 454 kts | 255° |
| 2026-04-28 19:09 | 19.00093 | 71.51593 | 25714 ft | 450 kts | 255° |
| 2026-04-28 19:10 | 18.99234 | 71.48408 | 26138 ft | 451 kts | 255° |
| 2026-04-28 19:10 | 18.98372 | 71.45216 | 26463 ft | 454 kts | 255° |
| 2026-04-28 19:10 | 18.97504 | 71.42001 | 26771 ft | 456 kts | 255° |
| 2026-04-28 19:10 | 18.96631 | 71.38770 | 27131 ft | 457 kts | 255° |
| 2026-04-28 19:11 | 18.95768 | 71.35579 | 27518 ft | 458 kts | 255° |
| 2026-04-28 19:11 | 18.94892 | 71.32340 | 27893 ft | 458 kts | 255° |
| 2026-04-28 19:11 | 18.94014 | 71.29101 | 28238 ft | 459 kts | 255° |
| 2026-04-28 19:11 | 18.93134 | 71.25852 | 28561 ft | 460 kts | 255° |
| 2026-04-28 19:12 | 18.92248 | 71.22588 | 28864 ft | 461 kts | 255° |
| 2026-04-28 19:12 | 18.91364 | 71.19328 | 29147 ft | 462 kts | 255° |
| 2026-04-28 19:12 | 18.90486 | 71.16099 | 29424 ft | 463 kts | 255° |
| 2026-04-28 19:12 | 18.89587 | 71.12789 | 29687 ft | 464 kts | 255° |
| 2026-04-28 19:13 | 18.88706 | 71.09553 | 29934 ft | 464 kts | 255° |
| 2026-04-28 19:13 | 18.87814 | 71.06276 | 30190 ft | 464 kts | 255° |
| 2026-04-28 19:13 | 18.86923 | 71.03008 | 30490 ft | 462 kts | 255° |
| 2026-04-28 19:13 | 18.86035 | 70.99751 | 30787 ft | 461 kts | 255° |
| 2026-04-28 19:14 | 18.85150 | 70.96507 | 31079 ft | 460 kts | 255° |
| 2026-04-28 19:14 | 18.84265 | 70.93266 | 31352 ft | 458 kts | 255° |
| 2026-04-28 19:14 | 18.83385 | 70.90045 | 31757 ft | 454 kts | 254° |
| 2026-04-28 19:14 | 18.82509 | 70.86841 | 31771 ft | 453 kts | 254° |
| 2026-04-28 19:15 | 18.81058 | 70.81541 | 31816 ft | 452 kts | 254° |
| 2026-04-28 19:15 | 18.79597 | 70.76210 | 31821 ft | 451 kts | 254° |
| 2026-04-28 19:16 | 18.77569 | 70.68823 | 31874 ft | 452 kts | 254° |
| 2026-04-28 19:16 | 18.76695 | 70.65641 | 32132 ft | 451 kts | 254° |
| 2026-04-28 19:16 | 18.75823 | 70.62468 | 32457 ft | 449 kts | 254° |
| 2026-04-28 19:17 | 18.74955 | 70.59316 | 32789 ft | 446 kts | 254° |
| 2026-04-28 19:17 | 18.74091 | 70.56178 | 33082 ft | 445 kts | 254° |
| 2026-04-28 19:17 | 18.73227 | 70.53041 | 33324 ft | 444 kts | 254° |
| 2026-04-28 19:17 | 18.72364 | 70.49914 | 33560 ft | 444 kts | 254° |
| 2026-04-28 19:18 | 18.71501 | 70.46787 | 33733 ft | 443 kts | 254° |
| 2026-04-28 19:18 | 18.70640 | 70.43668 | 33764 ft | 443 kts | 254° |
| 2026-04-28 19:18 | 18.68922 | 70.37454 | 33812 ft | 444 kts | 254° |
| 2026-04-28 19:19 | 18.67192 | 70.31204 | 33819 ft | 443 kts | 254° |
| 2026-04-28 19:19 | 18.65461 | 70.24961 | 33817 ft | 443 kts | 254° |
| 2026-04-28 19:20 | 18.63731 | 70.18726 | 33822 ft | 443 kts | 254° |
| 2026-04-28 19:20 | 18.61993 | 70.12475 | 33816 ft | 444 kts | 254° |
| 2026-04-28 19:21 | 18.60263 | 70.06261 | 33815 ft | 445 kts | 254° |
| 2026-04-28 19:21 | 18.58519 | 70.00003 | 33823 ft | 445 kts | 254° |
| 2026-04-28 19:22 | 18.57068 | 69.94806 | 33818 ft | 444 kts | 254° |
| 2026-04-28 19:22 | 18.55029 | 69.87510 | 33819 ft | 444 kts | 254° |
| 2026-04-28 19:23 | 18.53281 | 69.81266 | 33822 ft | 444 kts | 254° |
| 2026-04-28 19:23 | 18.51528 | 69.75012 | 33818 ft | 445 kts | 254° |
| 2026-04-28 19:24 | 18.49783 | 69.68794 | 33819 ft | 445 kts | 254° |
| 2026-04-28 19:24 | 18.48027 | 69.62544 | 33820 ft | 445 kts | 254° |
| 2026-04-28 19:25 | 18.46268 | 69.56296 | 33816 ft | 445 kts | 254° |
| 2026-04-28 19:25 | 18.44507 | 69.50045 | 33824 ft | 445 kts | 254° |
| 2026-04-28 19:26 | 18.42741 | 69.43787 | 33831 ft | 446 kts | 254° |
| 2026-04-28 19:26 | 18.40981 | 69.37556 | 33823 ft | 446 kts | 254° |
| 2026-04-28 19:27 | 18.39207 | 69.31288 | 33820 ft | 446 kts | 254° |
| 2026-04-28 19:27 | 18.37675 | 69.24959 | 33821 ft | 446 kts | 258° |
| 2026-04-28 19:28 | 18.36403 | 69.18571 | 33820 ft | 446 kts | 258° |
| 2026-04-28 19:28 | 18.35126 | 69.12173 | 33821 ft | 446 kts | 258° |
| 2026-04-28 19:29 | 18.34035 | 69.06862 | 33821 ft | 446 kts | 258° |
| 2026-04-28 19:29 | 18.32482 | 68.99429 | 33818 ft | 447 kts | 258° |
| 2026-04-28 19:30 | 18.31140 | 68.93037 | 33821 ft | 447 kts | 258° |
| 2026-04-28 19:30 | 18.29797 | 68.86645 | 33824 ft | 447 kts | 258° |
| 2026-04-28 19:31 | 18.27407 | 68.75296 | 33821 ft | 447 kts | 258° |
| 2026-04-28 19:31 | 18.22000 | 68.49736 | 33820 ft | 447 kts | 258° |
| 2026-04-28 19:32 | 18.16553 | 68.24164 | 33825 ft | 447 kts | 257° |
| 2026-04-28 19:32 | 18.11021 | 67.98368 | 33858 ft | 462 kts | 259° |
| 2026-04-28 19:33 | 18.08536 | 67.85131 | 33760 ft | 459 kts | 272° |
| 2026-04-28 19:33 | 18.12619 | 67.72616 | 33882 ft | 459 kts | 298° |
| 2026-04-28 19:33 | 18.25116 | 67.49081 | 33816 ft | 460 kts | 297° |
| 2026-04-28 19:34 | 18.37423 | 67.25477 | 33831 ft | 463 kts | 297° |
| 2026-04-28 19:34 | 18.49807 | 67.01641 | 33828 ft | 465 kts | 297° |
| 2026-04-28 19:35 | 18.62249 | 66.77602 | 33825 ft | 467 kts | 297° |
| 2026-04-28 19:35 | 18.74705 | 66.53442 | 33830 ft | 470 kts | 297° |
| 2026-04-28 19:36 | 18.87213 | 66.29083 | 33827 ft | 472 kts | 297° |
| 2026-04-28 19:36 | 18.99630 | 66.04805 | 33820 ft | 473 kts | 297° |
| 2026-04-28 19:37 | 19.10105 | 65.84247 | 33820 ft | 474 kts | 297° |
| 2026-04-28 19:37 | 19.24602 | 65.55679 | 33821 ft | 474 kts | 297° |
| 2026-04-28 19:38 | 19.37040 | 65.31055 | 33810 ft | 474 kts | 297° |
| 2026-04-28 19:38 | 19.49451 | 65.06381 | 33807 ft | 474 kts | 297° |
| 2026-04-28 19:39 | 19.62023 | 64.81804 | 33811 ft | 474 kts | 298° |
| 2026-04-28 19:39 | 19.74588 | 64.57316 | 33808 ft | 475 kts | 297° |
| 2026-04-28 19:40 | 19.87201 | 64.32624 | 33800 ft | 475 kts | 297° |
| 2026-04-28 19:40 | 19.99792 | 64.07869 | 33795 ft | 476 kts | 297° |
| 2026-04-28 19:41 | 20.12347 | 63.83079 | 33796 ft | 476 kts | 297° |
| 2026-04-28 19:41 | 20.24783 | 63.58416 | 33792 ft | 476 kts | 297° |
| 2026-04-28 19:42 | 20.37289 | 63.33504 | 33787 ft | 476 kts | 297° |
| 2026-04-28 19:42 | 20.47677 | 63.12727 | 33788 ft | 477 kts | 297° |
| 2026-04-28 19:43 | 20.62134 | 62.83680 | 33782 ft | 476 kts | 297° |
| 2026-04-28 19:43 | 20.74547 | 62.58620 | 33778 ft | 477 kts | 297° |
| 2026-04-28 19:44 | 20.80748 | 62.46056 | 33776 ft | 477 kts | 296° |
| 2026-04-28 19:44 | 20.83089 | 62.41306 | 33780 ft | 477 kts | 296° |
| 2026-04-28 19:45 | 20.86186 | 62.35017 | 33779 ft | 478 kts | 296° |
| 2026-04-28 19:45 | 20.89278 | 62.28729 | 33777 ft | 478 kts | 296° |
| 2026-04-28 19:46 | 20.92367 | 62.22439 | 33776 ft | 477 kts | 296° |
| 2026-04-28 19:46 | 20.95456 | 62.16143 | 33770 ft | 478 kts | 296° |
| 2026-04-28 19:47 | 20.98522 | 62.09886 | 33773 ft | 478 kts | 296° |
| 2026-04-28 19:47 | 21.01607 | 62.03585 | 33773 ft | 478 kts | 296° |
| 2026-04-28 19:48 | 21.04686 | 61.97285 | 33773 ft | 478 kts | 296° |
| 2026-04-28 19:48 | 21.07767 | 61.90977 | 33769 ft | 477 kts | 296° |
| 2026-04-28 19:49 | 21.10843 | 61.84669 | 33770 ft | 478 kts | 296° |
| 2026-04-28 19:49 | 21.13901 | 61.78391 | 33770 ft | 478 kts | 296° |
| 2026-04-28 19:50 | 21.18491 | 61.68913 | 33765 ft | 478 kts | 294° |
| 2026-04-28 19:51 | 21.20511 | 61.62161 | 33788 ft | 476 kts | 281° |
| 2026-04-28 19:51 | 21.21175 | 61.55113 | 33774 ft | 476 kts | 272° |
| 2026-04-28 19:52 | 21.21319 | 61.47998 | 33765 ft | 477 kts | 271° |
| 2026-04-28 19:52 | 21.21462 | 61.40884 | 33768 ft | 477 kts | 271° |
| 2026-04-28 19:53 | 21.21637 | 61.33778 | 33770 ft | 477 kts | 272° |
| 2026-04-28 19:53 | 21.21827 | 61.26664 | 33770 ft | 477 kts | 272° |
| 2026-04-28 19:54 | 21.22017 | 61.19552 | 33770 ft | 477 kts | 272° |
| 2026-04-28 19:54 | 21.22201 | 61.12484 | 33767 ft | 478 kts | 272° |
| 2026-04-28 19:55 | 21.22382 | 61.05374 | 33767 ft | 478 kts | 272° |
| 2026-04-28 19:55 | 21.22560 | 60.98246 | 33770 ft | 478 kts | 272° |
| 2026-04-28 19:56 | 21.22736 | 60.91119 | 33771 ft | 478 kts | 272° |
| 2026-04-28 19:56 | 21.22908 | 60.84001 | 33769 ft | 478 kts | 272° |
| 2026-04-28 19:57 | 21.23076 | 60.76918 | 33773 ft | 478 kts | 272° |
| 2026-04-28 19:57 | 21.23243 | 60.69789 | 33771 ft | 478 kts | 271° |
| 2026-04-28 19:58 | 21.23406 | 60.62665 | 33773 ft | 478 kts | 272° |
| 2026-04-28 19:58 | 21.23566 | 60.55539 | 33772 ft | 478 kts | 271° |
| 2026-04-28 19:59 | 21.23724 | 60.48411 | 33772 ft | 478 kts | 271° |
| 2026-04-28 19:59 | 21.23878 | 60.41275 | 33771 ft | 478 kts | 271° |
| 2026-04-28 20:00 | 21.24030 | 60.34150 | 33773 ft | 478 kts | 271° |
| 2026-04-28 20:00 | 21.24178 | 60.27021 | 33777 ft | 478 kts | 271° |
| 2026-04-28 20:01 | 21.24323 | 60.19936 | 33776 ft | 478 kts | 271° |
| 2026-04-28 20:01 | 21.24465 | 60.12804 | 33775 ft | 478 kts | 271° |
| 2026-04-28 20:02 | 21.24599 | 60.05667 | 33774 ft | 479 kts | 271° |
| 2026-04-28 20:02 | 21.24730 | 59.98526 | 33780 ft | 478 kts | 271° |
| 2026-04-28 20:03 | 21.24858 | 59.91398 | 33774 ft | 478 kts | 271° |
| 2026-04-28 20:03 | 21.24983 | 59.84303 | 33776 ft | 479 kts | 271° |
| 2026-04-28 20:04 | 21.25086 | 59.78359 | 33771 ft | 479 kts | 271° |
| 2026-04-28 20:04 | 21.25206 | 59.71221 | 33771 ft | 479 kts | 271° |
| 2026-04-28 20:05 | 21.25324 | 59.64074 | 33775 ft | 479 kts | 271° |
| 2026-04-28 20:05 | 21.25439 | 59.56936 | 33783 ft | 479 kts | 271° |
| 2026-04-28 20:06 | 21.25550 | 59.49792 | 33774 ft | 479 kts | 271° |
| 2026-04-28 20:06 | 21.25660 | 59.42642 | 33773 ft | 480 kts | 271° |
| 2026-04-28 20:07 | 21.25766 | 59.35498 | 33773 ft | 479 kts | 271° |
| 2026-04-28 20:07 | 21.25870 | 59.28346 | 33776 ft | 480 kts | 271° |
| 2026-04-28 20:08 | 21.25970 | 59.21235 | 33775 ft | 480 kts | 271° |
| 2026-04-28 20:08 | 21.26068 | 59.14085 | 33773 ft | 480 kts | 271° |
| 2026-04-28 20:09 | 21.26163 | 59.06934 | 33774 ft | 480 kts | 271° |
| 2026-04-28 20:09 | 21.26255 | 58.99781 | 33779 ft | 480 kts | 271° |
| 2026-04-28 20:10 | 21.26344 | 58.92634 | 33775 ft | 479 kts | 271° |
| 2026-04-28 20:10 | 21.26430 | 58.85486 | 33777 ft | 479 kts | 271° |
| 2026-04-28 20:11 | 21.27019 | 58.78385 | 33792 ft | 478 kts | 280° |
| 2026-04-28 20:11 | 21.28684 | 58.71485 | 33788 ft | 478 kts | 287° |
| 2026-04-28 20:12 | 21.30674 | 58.64724 | 33779 ft | 478 kts | 287° |
| 2026-04-28 20:12 | 21.32665 | 58.57916 | 33781 ft | 478 kts | 287° |
| 2026-04-28 20:13 | 21.34623 | 58.51110 | 33785 ft | 477 kts | 287° |
| 2026-04-28 20:13 | 21.36569 | 58.44297 | 33784 ft | 477 kts | 287° |
| 2026-04-28 20:14 | 21.38510 | 58.37489 | 33788 ft | 477 kts | 287° |
| 2026-04-28 20:14 | 21.40440 | 58.30712 | 33780 ft | 477 kts | 287° |
| 2026-04-28 20:15 | 21.42377 | 58.23897 | 33784 ft | 477 kts | 287° |
| 2026-04-28 20:15 | 21.44313 | 58.17079 | 33790 ft | 477 kts | 287° |
| 2026-04-28 20:16 | 21.46247 | 58.10256 | 33788 ft | 477 kts | 287° |
| 2026-04-28 20:16 | 21.48163 | 58.03484 | 33791 ft | 476 kts | 287° |
| 2026-04-28 20:17 | 21.50087 | 57.96671 | 33793 ft | 476 kts | 287° |
| 2026-04-28 20:17 | 21.52007 | 57.89863 | 33790 ft | 476 kts | 287° |
| 2026-04-28 20:18 | 21.53923 | 57.83054 | 33792 ft | 476 kts | 287° |
| 2026-04-28 20:18 | 21.55834 | 57.76254 | 33791 ft | 476 kts | 287° |
| 2026-04-28 20:19 | 21.57732 | 57.69488 | 33795 ft | 476 kts | 286° |
| 2026-04-28 20:19 | 21.59638 | 57.62677 | 33799 ft | 475 kts | 286° |
| 2026-04-28 20:20 | 21.61537 | 57.55863 | 33797 ft | 475 kts | 286° |
| 2026-04-28 20:20 | 21.63434 | 57.49044 | 33796 ft | 476 kts | 286° |
| 2026-04-28 20:21 | 21.65331 | 57.42218 | 33795 ft | 476 kts | 286° |
| 2026-04-28 20:21 | 21.67210 | 57.35441 | 33795 ft | 476 kts | 286° |
| 2026-04-28 20:22 | 21.69099 | 57.28619 | 33791 ft | 476 kts | 286° |
| 2026-04-28 20:22 | 21.70985 | 57.21793 | 33793 ft | 476 kts | 286° |
| 2026-04-28 20:23 | 21.72869 | 57.14965 | 33789 ft | 476 kts | 286° |
| 2026-04-28 20:23 | 21.74754 | 57.08114 | 33792 ft | 477 kts | 286° |
| 2026-04-28 20:24 | 21.76629 | 57.01281 | 33789 ft | 476 kts | 286° |
| 2026-04-28 20:24 | 21.78488 | 56.94497 | 33784 ft | 475 kts | 286° |
| 2026-04-28 20:25 | 21.80352 | 56.87682 | 33789 ft | 475 kts | 286° |
| 2026-04-28 20:25 | 21.82217 | 56.80849 | 33792 ft | 475 kts | 286° |
| 2026-04-28 20:26 | 21.84076 | 56.74031 | 33791 ft | 474 kts | 286° |
| 2026-04-28 20:26 | 21.85935 | 56.67202 | 33793 ft | 475 kts | 286° |
| 2026-04-28 20:27 | 21.87790 | 56.60384 | 33793 ft | 474 kts | 286° |
| 2026-04-28 20:27 | 21.89630 | 56.53611 | 33796 ft | 474 kts | 286° |
| 2026-04-28 20:28 | 21.91478 | 56.46790 | 33795 ft | 474 kts | 286° |
| 2026-04-28 20:28 | 21.93323 | 56.39971 | 33794 ft | 474 kts | 286° |
| 2026-04-28 20:29 | 21.95162 | 56.33167 | 33792 ft | 473 kts | 287° |
| 2026-04-28 20:29 | 21.97007 | 56.26367 | 33793 ft | 472 kts | 287° |
| 2026-04-28 20:30 | 21.98852 | 56.19564 | 33785 ft | 473 kts | 287° |
| 2026-04-28 20:30 | 22.00694 | 56.12754 | 33780 ft | 473 kts | 286° |
| 2026-04-28 20:31 | 22.02530 | 56.05951 | 33774 ft | 472 kts | 286° |
| 2026-04-28 20:31 | 22.04349 | 55.99155 | 33785 ft | 472 kts | 286° |
| 2026-04-28 20:32 | 22.06153 | 55.92389 | 33785 ft | 472 kts | 286° |
| 2026-04-28 20:32 | 22.07963 | 55.85587 | 33783 ft | 472 kts | 286° |
| 2026-04-28 20:33 | 22.09774 | 55.78778 | 33787 ft | 472 kts | 286° |
| 2026-04-28 20:33 | 22.11585 | 55.71952 | 33780 ft | 472 kts | 286° |
| 2026-04-28 20:34 | 22.13389 | 55.65146 | 33775 ft | 472 kts | 286° |
| 2026-04-28 20:34 | 22.15169 | 55.58336 | 33781 ft | 472 kts | 284° |
| 2026-04-28 20:35 | 22.16195 | 55.51402 | 33778 ft | 471 kts | 276° |
| 2026-04-28 20:35 | 22.16735 | 55.44356 | 33776 ft | 472 kts | 276° |
| 2026-04-28 20:36 | 22.17284 | 55.37289 | 33772 ft | 472 kts | 276° |
| 2026-04-28 20:36 | 22.17852 | 55.30229 | 33782 ft | 472 kts | 276° |
| 2026-04-28 20:37 | 22.18422 | 55.23220 | 33778 ft | 471 kts | 276° |
| 2026-04-28 20:37 | 22.18994 | 55.16161 | 33780 ft | 472 kts | 276° |
| 2026-04-28 20:38 | 22.19564 | 55.09088 | 33778 ft | 472 kts | 276° |
| 2026-04-28 20:38 | 22.20129 | 55.02034 | 33784 ft | 472 kts | 276° |
| 2026-04-28 20:39 | 22.20690 | 54.94976 | 33783 ft | 472 kts | 276° |
| 2026-04-28 20:39 | 22.21250 | 54.87908 | 33780 ft | 472 kts | 276° |
| 2026-04-28 20:40 | 22.21802 | 54.80894 | 33775 ft | 471 kts | 276° |
| 2026-04-28 20:40 | 22.22353 | 54.73856 | 33773 ft | 470 kts | 276° |
| 2026-04-28 20:41 | 22.22900 | 54.66830 | 33768 ft | 470 kts | 276° |
| 2026-04-28 20:41 | 22.23444 | 54.59799 | 33776 ft | 470 kts | 276° |
| 2026-04-28 20:42 | 22.23987 | 54.52746 | 33771 ft | 470 kts | 276° |
| 2026-04-28 20:42 | 22.24522 | 54.45753 | 33776 ft | 470 kts | 275° |
| 2026-04-28 20:43 | 22.25057 | 54.38720 | 33767 ft | 469 kts | 275° |
| 2026-04-28 20:43 | 22.25588 | 54.31708 | 33772 ft | 469 kts | 275° |
| 2026-04-28 20:44 | 22.26116 | 54.24691 | 33770 ft | 469 kts | 275° |
| 2026-04-28 20:44 | 22.26640 | 54.17678 | 33774 ft | 468 kts | 275° |
| 2026-04-28 20:45 | 22.27157 | 54.10724 | 33771 ft | 468 kts | 275° |
| 2026-04-28 20:45 | 22.27675 | 54.03718 | 33774 ft | 467 kts | 275° |
| 2026-04-28 20:46 | 22.28190 | 53.96723 | 33773 ft | 467 kts | 275° |
| 2026-04-28 20:46 | 22.28701 | 53.89729 | 33772 ft | 466 kts | 275° |
| 2026-04-28 20:47 | 22.29205 | 53.82786 | 33769 ft | 466 kts | 275° |
| 2026-04-28 20:47 | 22.29708 | 53.75810 | 33787 ft | 466 kts | 275° |
| 2026-04-28 20:48 | 22.30209 | 53.68828 | 33768 ft | 466 kts | 275° |
| 2026-04-28 20:48 | 22.30708 | 53.61843 | 33773 ft | 466 kts | 275° |
| 2026-04-28 20:49 | 22.31203 | 53.54855 | 33786 ft | 466 kts | 275° |
| 2026-04-28 20:49 | 22.31691 | 53.47929 | 33776 ft | 465 kts | 275° |
| 2026-04-28 20:50 | 22.32181 | 53.40944 | 33774 ft | 465 kts | 275° |
| 2026-04-28 20:50 | 22.32666 | 53.33969 | 33775 ft | 466 kts | 275° |
| 2026-04-28 20:51 | 22.33149 | 53.26979 | 33775 ft | 466 kts | 275° |
| 2026-04-28 20:51 | 22.33629 | 53.19995 | 33777 ft | 466 kts | 275° |
| 2026-04-28 20:52 | 22.34103 | 53.13060 | 33769 ft | 466 kts | 275° |
| 2026-04-28 20:52 | 22.34577 | 53.06082 | 33772 ft | 465 kts | 275° |
| 2026-04-28 20:53 | 22.35282 | 52.95614 | 33773 ft | 466 kts | 275° |
| 2026-04-28 20:53 | 22.35745 | 52.88673 | 33772 ft | 465 kts | 275° |
| 2026-04-28 20:54 | 22.36209 | 52.81696 | 33775 ft | 465 kts | 275° |
| 2026-04-28 20:54 | 22.36668 | 52.74722 | 33774 ft | 465 kts | 275° |
| 2026-04-28 20:55 | 22.37125 | 52.67753 | 33775 ft | 465 kts | 275° |
| 2026-04-28 20:55 | 22.37502 | 52.61952 | 33770 ft | 465 kts | 275° |
| 2026-04-28 20:56 | 22.37954 | 52.54972 | 33777 ft | 465 kts | 275° |
| 2026-04-28 20:56 | 22.38402 | 52.47993 | 33774 ft | 465 kts | 275° |
| 2026-04-28 20:57 | 22.38845 | 52.41055 | 33771 ft | 465 kts | 275° |
| 2026-04-28 20:57 | 22.39288 | 52.34078 | 33771 ft | 465 kts | 275° |
| 2026-04-28 20:58 | 22.39728 | 52.27087 | 33770 ft | 465 kts | 275° |
| 2026-04-28 20:58 | 22.40164 | 52.20110 | 33772 ft | 465 kts | 275° |
| 2026-04-28 20:59 | 22.40596 | 52.13171 | 33773 ft | 465 kts | 275° |
| 2026-04-28 20:59 | 22.41121 | 52.06208 | 33770 ft | 464 kts | 276° |
| 2026-04-28 21:00 | 22.41715 | 51.99253 | 33765 ft | 464 kts | 276° |
| 2026-04-28 21:00 | 22.42301 | 51.92296 | 33768 ft | 465 kts | 276° |
| 2026-04-28 21:01 | 22.42872 | 51.85339 | 33769 ft | 465 kts | 276° |
| 2026-04-28 21:01 | 22.43435 | 51.78372 | 33768 ft | 465 kts | 276° |
| 2026-04-28 21:02 | 22.43989 | 51.71453 | 33766 ft | 464 kts | 275° |
| 2026-04-28 21:02 | 22.44545 | 51.64491 | 33771 ft | 464 kts | 275° |
| 2026-04-28 21:03 | 22.45098 | 51.57528 | 33771 ft | 464 kts | 275° |
| 2026-04-28 21:03 | 22.45647 | 51.50568 | 33771 ft | 465 kts | 275° |
| 2026-04-28 21:04 | 22.46191 | 51.43647 | 33770 ft | 465 kts | 275° |
| 2026-04-28 21:04 | 22.46735 | 51.36683 | 33772 ft | 464 kts | 275° |
| 2026-04-28 21:05 | 22.47275 | 51.29733 | 33774 ft | 464 kts | 275° |
| 2026-04-28 21:05 | 22.47812 | 51.22774 | 33769 ft | 464 kts | 275° |
| 2026-04-28 21:06 | 22.48347 | 51.15808 | 33771 ft | 464 kts | 275° |
| 2026-04-28 21:06 | 22.48876 | 51.08893 | 33768 ft | 463 kts | 275° |
| 2026-04-28 21:07 | 22.49404 | 51.01940 | 33774 ft | 463 kts | 275° |
| 2026-04-28 21:07 | 22.49929 | 50.94988 | 33770 ft | 464 kts | 275° |
| 2026-04-28 21:08 | 22.50448 | 50.88068 | 33771 ft | 463 kts | 275° |
| 2026-04-28 21:08 | 22.50967 | 50.81116 | 33772 ft | 463 kts | 275° |
| 2026-04-28 21:09 | 22.51482 | 50.74169 | 33769 ft | 463 kts | 275° |
| 2026-04-28 21:09 | 22.51995 | 50.67217 | 33773 ft | 464 kts | 275° |
| 2026-04-28 21:10 | 22.52506 | 50.60258 | 33772 ft | 464 kts | 275° |
| 2026-04-28 21:10 | 22.53009 | 50.53353 | 33770 ft | 463 kts | 275° |
| 2026-04-28 21:11 | 22.53513 | 50.46405 | 33769 ft | 464 kts | 275° |
| 2026-04-28 21:11 | 22.54014 | 50.39450 | 33773 ft | 463 kts | 275° |
| 2026-04-28 21:12 | 22.54512 | 50.32493 | 33770 ft | 463 kts | 275° |
| 2026-04-28 21:12 | 22.55006 | 50.25544 | 33767 ft | 463 kts | 275° |
| 2026-04-28 21:13 | 22.55498 | 50.18593 | 33769 ft | 463 kts | 275° |
| 2026-04-28 21:13 | 22.55986 | 50.11646 | 33766 ft | 463 kts | 275° |
| 2026-04-28 21:14 | 22.56468 | 50.04743 | 33766 ft | 463 kts | 274° |
| 2026-04-28 21:14 | 22.56952 | 49.97782 | 33767 ft | 463 kts | 274° |
| 2026-04-28 21:15 | 22.57431 | 49.90837 | 33766 ft | 462 kts | 274° |
| 2026-04-28 21:15 | 22.57907 | 49.83897 | 33762 ft | 462 kts | 274° |
| 2026-04-28 21:16 | 22.58380 | 49.76954 | 33761 ft | 462 kts | 274° |
| 2026-04-28 21:16 | 22.58846 | 49.70067 | 33760 ft | 461 kts | 274° |
| 2026-04-28 21:17 | 22.59312 | 49.63144 | 33758 ft | 461 kts | 274° |
| 2026-04-28 21:17 | 22.59774 | 49.56220 | 33760 ft | 460 kts | 274° |
| 2026-04-28 21:18 | 22.60233 | 49.49312 | 33760 ft | 459 kts | 274° |
| 2026-04-28 21:18 | 22.60687 | 49.42417 | 33758 ft | 459 kts | 274° |
| 2026-04-28 21:19 | 22.61137 | 49.35560 | 33756 ft | 459 kts | 274° |
| 2026-04-28 21:19 | 22.61587 | 49.28646 | 33760 ft | 459 kts | 274° |
| 2026-04-28 21:20 | 22.62032 | 49.21759 | 33761 ft | 458 kts | 274° |
| 2026-04-28 21:20 | 22.62474 | 49.14879 | 33759 ft | 457 kts | 274° |
| 2026-04-28 21:21 | 22.62910 | 49.08050 | 33759 ft | 457 kts | 274° |
| 2026-04-28 21:21 | 22.63345 | 49.01188 | 33758 ft | 457 kts | 274° |
| 2026-04-28 21:22 | 22.63777 | 48.94318 | 33761 ft | 457 kts | 274° |
| 2026-04-28 21:22 | 22.64134 | 48.88614 | 33760 ft | 457 kts | 274° |
| 2026-04-28 21:23 | 22.64633 | 48.80587 | 33759 ft | 456 kts | 274° |
| 2026-04-28 21:23 | 22.65055 | 48.73741 | 33761 ft | 456 kts | 274° |
| 2026-04-28 21:24 | 22.65471 | 48.66938 | 33758 ft | 455 kts | 274° |
| 2026-04-28 21:24 | 22.65889 | 48.60080 | 33766 ft | 456 kts | 273° |
| 2026-04-28 21:25 | 22.66302 | 48.53225 | 33764 ft | 456 kts | 273° |
| 2026-04-28 21:25 | 22.66712 | 48.46400 | 33765 ft | 456 kts | 273° |
| 2026-04-28 21:26 | 22.67120 | 48.39536 | 33767 ft | 456 kts | 273° |
| 2026-04-28 21:26 | 22.67525 | 48.32681 | 33763 ft | 456 kts | 273° |
| 2026-04-28 21:27 | 22.67928 | 48.25825 | 33767 ft | 455 kts | 273° |
| 2026-04-28 21:27 | 22.68327 | 48.18974 | 33768 ft | 455 kts | 273° |
| 2026-04-28 21:28 | 22.68719 | 48.12179 | 33773 ft | 455 kts | 273° |
| 2026-04-28 21:28 | 22.69113 | 48.05327 | 33776 ft | 455 kts | 273° |
| 2026-04-28 21:29 | 22.69588 | 47.98491 | 33778 ft | 455 kts | 275° |
| 2026-04-28 21:29 | 22.70184 | 47.91661 | 33781 ft | 456 kts | 275° |
| 2026-04-28 21:30 | 22.70778 | 47.84814 | 33782 ft | 456 kts | 275° |
| 2026-04-28 21:30 | 22.71347 | 47.78016 | 33786 ft | 456 kts | 274° |
| 2026-04-28 21:31 | 22.71908 | 47.71181 | 33788 ft | 455 kts | 274° |
| 2026-04-28 21:31 | 22.72466 | 47.64345 | 33799 ft | 456 kts | 274° |
| 2026-04-28 21:32 | 22.73021 | 47.57514 | 33800 ft | 456 kts | 274° |
| 2026-04-28 21:32 | 22.73575 | 47.50663 | 33804 ft | 455 kts | 274° |
| 2026-04-28 21:33 | 22.74125 | 47.43827 | 33814 ft | 455 kts | 274° |
| 2026-04-28 21:33 | 22.74672 | 47.36998 | 33819 ft | 455 kts | 274° |
| 2026-04-28 21:34 | 22.75213 | 47.30199 | 33821 ft | 455 kts | 274° |
| 2026-04-28 21:34 | 22.75755 | 47.23359 | 33826 ft | 456 kts | 274° |
| 2026-04-28 21:35 | 22.76295 | 47.16509 | 33834 ft | 456 kts | 274° |
| 2026-04-28 21:35 | 22.76841 | 47.09669 | 33838 ft | 455 kts | 274° |
| 2026-04-28 21:36 | 22.77388 | 47.02840 | 33842 ft | 455 kts | 274° |
| 2026-04-28 21:36 | 22.77927 | 46.96057 | 33844 ft | 455 kts | 274° |
| 2026-04-28 21:37 | 22.78466 | 46.89230 | 33852 ft | 455 kts | 274° |
| 2026-04-28 21:37 | 22.79002 | 46.82399 | 33856 ft | 454 kts | 274° |
| 2026-04-28 21:38 | 22.79534 | 46.75577 | 33858 ft | 454 kts | 274° |
| 2026-04-28 21:38 | 22.80062 | 46.68768 | 33860 ft | 453 kts | 274° |
| 2026-04-28 21:39 | 22.80585 | 46.61990 | 33868 ft | 454 kts | 274° |
| 2026-04-28 21:39 | 22.81108 | 46.55172 | 33873 ft | 453 kts | 274° |
| 2026-04-28 21:40 | 22.81629 | 46.48357 | 33879 ft | 453 kts | 274° |
| 2026-04-28 21:40 | 22.82143 | 46.41574 | 33873 ft | 453 kts | 274° |
| 2026-04-28 21:41 | 22.82654 | 46.34771 | 33886 ft | 452 kts | 273° |
| 2026-04-28 21:41 | 22.83155 | 46.27974 | 33878 ft | 452 kts | 273° |
| 2026-04-28 21:42 | 22.83653 | 46.21173 | 33880 ft | 451 kts | 273° |
| 2026-04-28 21:42 | 22.84145 | 46.14434 | 33882 ft | 452 kts | 273° |
| 2026-04-28 21:43 | 22.84639 | 46.07639 | 33877 ft | 451 kts | 273° |
| 2026-04-28 21:43 | 22.85129 | 46.00859 | 33871 ft | 451 kts | 273° |
| 2026-04-28 21:44 | 22.85616 | 45.94062 | 33871 ft | 451 kts | 273° |
| 2026-04-28 21:44 | 22.86101 | 45.87268 | 33867 ft | 452 kts | 273° |
| 2026-04-28 21:45 | 22.86579 | 45.80522 | 33869 ft | 452 kts | 273° |
| 2026-04-28 21:45 | 22.87059 | 45.73718 | 33865 ft | 452 kts | 273° |
| 2026-04-28 21:46 | 22.87536 | 45.66910 | 34015 ft | 453 kts | 273° |
| 2026-04-28 21:46 | 22.87773 | 45.63509 | 34272 ft | 451 kts | 273° |
| 2026-04-28 21:46 | 22.87932 | 45.61223 | 34448 ft | 450 kts | 273° |
| 2026-04-28 21:47 | 22.88164 | 45.57878 | 34688 ft | 449 kts | 273° |
| 2026-04-28 21:47 | 22.88398 | 45.54495 | 34895 ft | 449 kts | 273° |
| 2026-04-28 21:47 | 22.88631 | 45.51119 | 35099 ft | 449 kts | 273° |
| 2026-04-28 21:47 | 22.88863 | 45.47743 | 35292 ft | 449 kts | 273° |
| 2026-04-28 21:48 | 22.89094 | 45.44361 | 35512 ft | 448 kts | 273° |
| 2026-04-28 21:48 | 22.89324 | 45.40994 | 35714 ft | 448 kts | 272° |
| 2026-04-28 21:48 | 22.89783 | 45.34248 | 35827 ft | 448 kts | 272° |
| 2026-04-28 21:49 | 22.90239 | 45.27499 | 35868 ft | 449 kts | 272° |
| 2026-04-28 21:49 | 22.90693 | 45.20736 | 35876 ft | 449 kts | 272° |
| 2026-04-28 21:50 | 22.91143 | 45.13997 | 35875 ft | 448 kts | 272° |
| 2026-04-28 21:50 | 22.91587 | 45.07298 | 35882 ft | 448 kts | 272° |
| 2026-04-28 21:51 | 22.92032 | 45.00555 | 35882 ft | 447 kts | 272° |
| 2026-04-28 21:51 | 22.92474 | 44.93826 | 35894 ft | 447 kts | 272° |
| 2026-04-28 21:52 | 22.92913 | 44.87091 | 35892 ft | 447 kts | 272° |
| 2026-04-28 21:52 | 22.93349 | 44.80367 | 35891 ft | 446 kts | 272° |
| 2026-04-28 21:53 | 22.93779 | 44.73694 | 35891 ft | 446 kts | 272° |
| 2026-04-28 21:53 | 22.94514 | 44.67001 | 35906 ft | 448 kts | 279° |
| 2026-04-28 21:54 | 22.96188 | 44.60464 | 35904 ft | 450 kts | 285° |
| 2026-04-28 21:54 | 22.98209 | 44.54032 | 35899 ft | 450 kts | 286° |
| 2026-04-28 21:55 | 23.00202 | 44.47665 | 35899 ft | 449 kts | 285° |
| 2026-04-28 21:55 | 23.02201 | 44.41211 | 35899 ft | 448 kts | 285° |
| 2026-04-28 21:56 | 23.04177 | 44.34791 | 35904 ft | 448 kts | 285° |
| 2026-04-28 21:56 | 23.06150 | 44.28365 | 35905 ft | 448 kts | 285° |
| 2026-04-28 21:57 | 23.08118 | 44.21946 | 35906 ft | 447 kts | 285° |
| 2026-04-28 21:57 | 23.10082 | 44.15535 | 35913 ft | 447 kts | 285° |
| 2026-04-28 21:58 | 23.12029 | 44.09168 | 35919 ft | 447 kts | 285° |
| 2026-04-28 21:58 | 23.13988 | 44.02748 | 35915 ft | 446 kts | 285° |
| 2026-04-28 21:59 | 23.15939 | 43.96345 | 35924 ft | 446 kts | 285° |
| 2026-04-28 22:00 | 23.18853 | 43.86769 | 35925 ft | 446 kts | 285° |
| 2026-04-28 22:00 | 23.20798 | 43.80361 | 35938 ft | 445 kts | 285° |
| 2026-04-28 22:01 | 23.22736 | 43.73963 | 35947 ft | 445 kts | 285° |
| 2026-04-28 22:01 | 23.24677 | 43.67548 | 35945 ft | 447 kts | 285° |
| 2026-04-28 22:02 | 23.26603 | 43.61173 | 35948 ft | 446 kts | 285° |
| 2026-04-28 22:02 | 23.28536 | 43.54763 | 35961 ft | 446 kts | 285° |
| 2026-04-28 22:03 | 23.30464 | 43.48345 | 35966 ft | 446 kts | 285° |
| 2026-04-28 22:03 | 23.32388 | 43.41932 | 35975 ft | 446 kts | 285° |
| 2026-04-28 22:04 | 23.34314 | 43.35501 | 35975 ft | 447 kts | 284° |
| 2026-04-28 22:04 | 23.36224 | 43.29113 | 35984 ft | 446 kts | 284° |
| 2026-04-28 22:05 | 23.38142 | 43.22688 | 35992 ft | 446 kts | 284° |
| 2026-04-28 22:05 | 23.40055 | 43.16271 | 35998 ft | 446 kts | 284° |
| 2026-04-28 22:06 | 23.41963 | 43.09848 | 36007 ft | 446 kts | 284° |
| 2026-04-28 22:06 | 23.43863 | 43.03411 | 36007 ft | 446 kts | 284° |
| 2026-04-28 22:07 | 23.45758 | 42.96985 | 36003 ft | 446 kts | 284° |
| 2026-04-28 22:07 | 23.47642 | 42.90587 | 36005 ft | 446 kts | 284° |
| 2026-04-28 22:08 | 23.49533 | 42.84153 | 36010 ft | 446 kts | 284° |
| 2026-04-28 22:08 | 23.51426 | 42.77704 | 36008 ft | 446 kts | 284° |
| 2026-04-28 22:09 | 23.53319 | 42.71265 | 36004 ft | 446 kts | 284° |
| 2026-04-28 22:09 | 23.55208 | 42.64876 | 36006 ft | 445 kts | 284° |
| 2026-04-28 22:10 | 23.57106 | 42.58443 | 36004 ft | 445 kts | 284° |
| 2026-04-28 22:10 | 23.58999 | 42.52010 | 36009 ft | 445 kts | 284° |
| 2026-04-28 22:11 | 23.60876 | 42.45620 | 36008 ft | 445 kts | 284° |
| 2026-04-28 22:11 | 23.62759 | 42.39197 | 36011 ft | 445 kts | 284° |
| 2026-04-28 22:12 | 23.64641 | 42.32770 | 36003 ft | 444 kts | 284° |
| 2026-04-28 22:12 | 23.66517 | 42.26339 | 36006 ft | 444 kts | 283° |
| 2026-04-28 22:13 | 23.68368 | 42.19915 | 36001 ft | 444 kts | 283° |
| 2026-04-28 22:13 | 23.70204 | 42.13523 | 36005 ft | 443 kts | 283° |
| 2026-04-28 22:14 | 23.72049 | 42.07100 | 35997 ft | 443 kts | 283° |
| 2026-04-28 22:14 | 23.73890 | 42.00684 | 36000 ft | 442 kts | 283° |
| 2026-04-28 22:15 | 23.75739 | 41.94278 | 35998 ft | 442 kts | 283° |
| 2026-04-28 22:15 | 23.77605 | 41.87873 | 36000 ft | 443 kts | 283° |
| 2026-04-28 22:16 | 23.79466 | 41.81467 | 35996 ft | 442 kts | 283° |
| 2026-04-28 22:16 | 23.81309 | 41.75097 | 35997 ft | 442 kts | 283° |
| 2026-04-28 22:17 | 23.83151 | 41.68686 | 35993 ft | 442 kts | 283° |
| 2026-04-28 22:17 | 23.84992 | 41.62265 | 35992 ft | 441 kts | 283° |
| 2026-04-28 22:18 | 23.86829 | 41.55855 | 35991 ft | 441 kts | 283° |
| 2026-04-28 22:18 | 23.88645 | 41.49495 | 35988 ft | 440 kts | 283° |
| 2026-04-28 22:19 | 23.90465 | 41.43107 | 35990 ft | 439 kts | 283° |
| 2026-04-28 22:19 | 23.92281 | 41.36727 | 35975 ft | 439 kts | 283° |
| 2026-04-28 22:20 | 23.94089 | 41.30361 | 35995 ft | 438 kts | 283° |
| 2026-04-28 22:20 | 23.95883 | 41.24029 | 35990 ft | 438 kts | 283° |
| 2026-04-28 22:21 | 23.97682 | 41.17671 | 35981 ft | 438 kts | 283° |
| 2026-04-28 22:21 | 23.99477 | 41.11315 | 35978 ft | 437 kts | 283° |
| 2026-04-28 22:22 | 24.01268 | 41.04961 | 35980 ft | 437 kts | 283° |
| 2026-04-28 22:22 | 24.03058 | 40.98600 | 35988 ft | 437 kts | 283° |
| 2026-04-28 22:23 | 24.04835 | 40.92275 | 35976 ft | 437 kts | 283° |
| 2026-04-28 22:23 | 24.06615 | 40.85921 | 35985 ft | 436 kts | 282° |
| 2026-04-28 22:24 | 24.08391 | 40.79568 | 35976 ft | 435 kts | 282° |
| 2026-04-28 22:24 | 24.10158 | 40.73237 | 35978 ft | 435 kts | 282° |
| 2026-04-28 22:25 | 24.11909 | 40.66952 | 35978 ft | 434 kts | 282° |
| 2026-04-28 22:25 | 24.13670 | 40.60619 | 35980 ft | 435 kts | 282° |
| 2026-04-28 22:26 | 24.15438 | 40.54271 | 35973 ft | 435 kts | 283° |
| 2026-04-28 22:26 | 24.17763 | 40.48108 | 35967 ft | 441 kts | 292° |
| 2026-04-28 22:27 | 24.20619 | 40.42217 | 35969 ft | 440 kts | 292° |
| 2026-04-28 22:27 | 24.23481 | 40.36284 | 35964 ft | 440 kts | 292° |
| 2026-04-28 22:28 | 24.26320 | 40.30353 | 35971 ft | 439 kts | 292° |
| 2026-04-28 22:28 | 24.29152 | 40.24414 | 35968 ft | 439 kts | 291° |
| 2026-04-28 22:29 | 24.31964 | 40.18511 | 35972 ft | 438 kts | 291° |
| 2026-04-28 22:29 | 24.34783 | 40.12583 | 35968 ft | 438 kts | 291° |
| 2026-04-28 22:30 | 24.37598 | 40.06659 | 35968 ft | 437 kts | 291° |
| 2026-04-28 22:30 | 24.40405 | 40.00746 | 35966 ft | 436 kts | 291° |
| 2026-04-28 22:31 | 24.43199 | 39.94851 | 35966 ft | 435 kts | 291° |
| 2026-04-28 22:31 | 24.45971 | 39.88993 | 35969 ft | 435 kts | 291° |
| 2026-04-28 22:32 | 24.48764 | 39.83085 | 35972 ft | 434 kts | 291° |
| 2026-04-28 22:32 | 24.51546 | 39.77193 | 35971 ft | 434 kts | 291° |
| 2026-04-28 22:33 | 24.54903 | 39.71604 | 35975 ft | 445 kts | 303° |
| 2026-04-28 22:33 | 24.59268 | 39.66758 | 35961 ft | 456 kts | 313° |
| 2026-04-28 22:34 | 24.64407 | 39.62620 | 35974 ft | 458 kts | 315° |
| 2026-04-28 22:34 | 24.69603 | 39.58571 | 35967 ft | 460 kts | 315° |
| 2026-04-28 22:35 | 24.74800 | 39.54468 | 35970 ft | 460 kts | 315° |
| 2026-04-28 22:35 | 24.79980 | 39.50334 | 35973 ft | 459 kts | 315° |
| 2026-04-28 22:36 | 24.85156 | 39.46186 | 35954 ft | 460 kts | 315° |
| 2026-04-28 22:36 | 24.89466 | 39.42731 | 35966 ft | 460 kts | 314° |
| 2026-04-28 22:37 | 24.95486 | 39.37903 | 35963 ft | 460 kts | 315° |
| 2026-04-28 22:37 | 25.00657 | 39.33751 | 35961 ft | 460 kts | 315° |
| 2026-04-28 22:38 | 25.04956 | 39.30295 | 35959 ft | 460 kts | 314° |
| 2026-04-28 22:38 | 25.10126 | 39.26135 | 35959 ft | 460 kts | 314° |
| 2026-04-28 22:39 | 25.15296 | 39.21971 | 35959 ft | 460 kts | 314° |
| 2026-04-28 22:39 | 25.20267 | 39.17619 | 35963 ft | 449 kts | 307° |
| 2026-04-28 22:40 | 25.24399 | 39.12549 | 35955 ft | 441 kts | 300° |
| 2026-04-28 22:40 | 25.27815 | 39.06974 | 35957 ft | 438 kts | 295° |
| 2026-04-28 22:41 | 25.31076 | 39.01331 | 35959 ft | 437 kts | 295° |
| 2026-04-28 22:41 | 25.34353 | 38.95674 | 35951 ft | 437 kts | 295° |
| 2026-04-28 22:42 | 25.37640 | 38.90030 | 35944 ft | 436 kts | 295° |
| 2026-04-28 22:42 | 25.40924 | 38.84400 | 35943 ft | 435 kts | 295° |
| 2026-04-28 22:43 | 25.44209 | 38.78767 | 35936 ft | 435 kts | 295° |
| 2026-04-28 22:43 | 25.47467 | 38.73170 | 35936 ft | 435 kts | 295° |
| 2026-04-28 22:44 | 25.50742 | 38.67538 | 35936 ft | 434 kts | 295° |
| 2026-04-28 22:44 | 25.54003 | 38.61925 | 35929 ft | 433 kts | 295° |
| 2026-04-28 22:45 | 25.57262 | 38.56304 | 35925 ft | 433 kts | 295° |
| 2026-04-28 22:45 | 25.60522 | 38.50675 | 35923 ft | 434 kts | 295° |
| 2026-04-28 22:46 | 25.63760 | 38.45079 | 35917 ft | 433 kts | 295° |
| 2026-04-28 22:46 | 25.67011 | 38.39456 | 35916 ft | 433 kts | 295° |
| 2026-04-28 22:47 | 25.70261 | 38.33823 | 35918 ft | 434 kts | 295° |
| 2026-04-28 22:47 | 25.73512 | 38.28185 | 35913 ft | 433 kts | 295° |
| 2026-04-28 22:48 | 25.76753 | 38.22556 | 35913 ft | 433 kts | 295° |
| 2026-04-28 22:48 | 25.79996 | 38.16918 | 35915 ft | 432 kts | 295° |
| 2026-04-28 22:49 | 25.83223 | 38.11300 | 35914 ft | 432 kts | 295° |
| 2026-04-28 22:49 | 25.86454 | 38.05667 | 35919 ft | 432 kts | 294° |
| 2026-04-28 22:50 | 25.89682 | 38.00034 | 35908 ft | 432 kts | 294° |
| 2026-04-28 22:50 | 25.92895 | 37.94422 | 35943 ft | 431 kts | 294° |
| 2026-04-28 22:51 | 25.96089 | 37.88836 | 35935 ft | 431 kts | 294° |
| 2026-04-28 22:51 | 25.98989 | 37.83067 | 35945 ft | 422 kts | 286° |
| 2026-04-28 22:52 | 26.00931 | 37.76939 | 35949 ft | 418 kts | 280° |
| 2026-04-28 22:52 | 26.01996 | 37.70622 | 35944 ft | 416 kts | 274° |
| 2026-04-28 22:53 | 26.02818 | 37.64247 | 35959 ft | 416 kts | 274° |
| 2026-04-28 22:53 | 26.03672 | 37.57865 | 35951 ft | 417 kts | 274° |
| 2026-04-28 22:54 | 26.04537 | 37.51512 | 35948 ft | 415 kts | 274° |
| 2026-04-28 22:54 | 26.05383 | 37.45218 | 35960 ft | 415 kts | 274° |
| 2026-04-28 22:55 | 26.06229 | 37.38848 | 35949 ft | 415 kts | 274° |
| 2026-04-28 22:55 | 26.07070 | 37.32501 | 35941 ft | 414 kts | 274° |
| 2026-04-28 22:56 | 26.07901 | 37.26208 | 35930 ft | 413 kts | 274° |
| 2026-04-28 22:56 | 26.08735 | 37.19874 | 35925 ft | 413 kts | 274° |
| 2026-04-28 22:57 | 26.09567 | 37.13539 | 35919 ft | 414 kts | 274° |
| 2026-04-28 22:57 | 26.10398 | 37.07195 | 35922 ft | 414 kts | 274° |
| 2026-04-28 22:58 | 26.11223 | 37.00854 | 35921 ft | 414 kts | 274° |
| 2026-04-28 22:58 | 26.12041 | 36.94562 | 35913 ft | 413 kts | 274° |
| 2026-04-28 22:59 | 26.12859 | 36.88241 | 35912 ft | 412 kts | 274° |
| 2026-04-28 22:59 | 26.13675 | 36.81919 | 35913 ft | 413 kts | 274° |
| 2026-04-28 23:00 | 26.14489 | 36.75588 | 35912 ft | 413 kts | 274° |
| 2026-04-28 23:00 | 26.15300 | 36.69250 | 35909 ft | 413 kts | 274° |
| 2026-04-28 23:01 | 26.16102 | 36.62972 | 35916 ft | 412 kts | 274° |
| 2026-04-28 23:01 | 26.16906 | 36.56650 | 35914 ft | 412 kts | 274° |
| 2026-04-28 23:02 | 26.18482 | 36.50484 | 35926 ft | 423 kts | 288° |
| 2026-04-28 23:02 | 26.21410 | 36.44748 | 35898 ft | 430 kts | 299° |
| 2026-04-28 23:03 | 26.25500 | 36.39841 | 35913 ft | 436 kts | 305° |
| 2026-04-28 23:03 | 26.29792 | 36.35029 | 35912 ft | 438 kts | 305° |
| 2026-04-28 23:04 | 26.34069 | 36.30176 | 35900 ft | 438 kts | 305° |
| 2026-04-28 23:04 | 26.40417 | 36.22868 | 35904 ft | 436 kts | 304° |
| 2026-04-28 23:05 | 26.44602 | 36.18026 | 35907 ft | 436 kts | 304° |
| 2026-04-28 23:05 | 26.48814 | 36.13150 | 35906 ft | 436 kts | 305° |
| 2026-04-28 23:06 | 26.53026 | 36.08269 | 35904 ft | 436 kts | 305° |
| 2026-04-28 23:06 | 26.57238 | 36.03384 | 35903 ft | 436 kts | 305° |
| 2026-04-28 23:07 | 26.61440 | 35.98505 | 35901 ft | 435 kts | 305° |
| 2026-04-28 23:07 | 26.65615 | 35.93652 | 35898 ft | 435 kts | 305° |
| 2026-04-28 23:08 | 26.69809 | 35.88770 | 35898 ft | 434 kts | 305° |
| 2026-04-28 23:08 | 26.74005 | 35.83879 | 35900 ft | 435 kts | 305° |
| 2026-04-28 23:09 | 26.78194 | 35.78994 | 35899 ft | 435 kts | 305° |
| 2026-04-28 23:09 | 26.82381 | 35.74106 | 35898 ft | 435 kts | 305° |
| 2026-04-28 23:10 | 26.86545 | 35.69239 | 35902 ft | 435 kts | 305° |
| 2026-04-28 23:10 | 26.90731 | 35.64340 | 35903 ft | 435 kts | 305° |
| 2026-04-28 23:11 | 26.94915 | 35.59437 | 35898 ft | 434 kts | 305° |
| 2026-04-28 23:11 | 26.99090 | 35.54539 | 35897 ft | 434 kts | 305° |
| 2026-04-28 23:12 | 27.03266 | 35.49634 | 35901 ft | 435 kts | 305° |
| 2026-04-28 23:12 | 27.07418 | 35.44752 | 35897 ft | 435 kts | 305° |
| 2026-04-28 23:13 | 27.11587 | 35.39844 | 35894 ft | 434 kts | 305° |
| 2026-04-28 23:13 | 27.15760 | 35.34926 | 35893 ft | 434 kts | 305° |
| 2026-04-28 23:14 | 27.19933 | 35.30002 | 35893 ft | 434 kts | 305° |
| 2026-04-28 23:14 | 27.24069 | 35.25116 | 35892 ft | 434 kts | 305° |
| 2026-04-28 23:15 | 27.28235 | 35.20188 | 35892 ft | 434 kts | 306° |
| 2026-04-28 23:15 | 27.32395 | 35.15262 | 35894 ft | 434 kts | 306° |
| 2026-04-28 23:16 | 27.36558 | 35.10327 | 35894 ft | 434 kts | 306° |
| 2026-04-28 23:16 | 27.40714 | 35.05394 | 35896 ft | 434 kts | 306° |
| 2026-04-28 23:17 | 27.44846 | 35.00484 | 35900 ft | 434 kts | 306° |
| 2026-04-28 23:17 | 27.49002 | 34.95539 | 35898 ft | 434 kts | 306° |
| 2026-04-28 23:18 | 27.53254 | 34.90677 | 35896 ft | 437 kts | 308° |
| 2026-04-28 23:18 | 27.57708 | 34.85984 | 35901 ft | 438 kts | 309° |
| 2026-04-28 23:19 | 27.62175 | 34.81300 | 35890 ft | 437 kts | 309° |
| 2026-04-28 23:19 | 27.66589 | 34.76640 | 35899 ft | 438 kts | 309° |
| 2026-04-28 23:20 | 27.71043 | 34.71920 | 35905 ft | 438 kts | 309° |
| 2026-04-28 23:20 | 27.75487 | 34.67202 | 35914 ft | 438 kts | 309° |
| 2026-04-28 23:21 | 27.79930 | 34.62480 | 35921 ft | 438 kts | 309° |
| 2026-04-28 23:21 | 27.84340 | 34.57787 | 35929 ft | 438 kts | 309° |
| 2026-04-28 23:22 | 27.88055 | 34.53830 | 35938 ft | 438 kts | 309° |
| 2026-04-28 23:22 | 27.93217 | 34.48326 | 35943 ft | 439 kts | 309° |
| 2026-04-28 23:23 | 27.97659 | 34.43586 | 35945 ft | 439 kts | 309° |
| 2026-04-28 23:23 | 28.01826 | 34.38594 | 35945 ft | 432 kts | 302° |
| 2026-04-28 23:24 | 28.05627 | 34.33298 | 35947 ft | 434 kts | 302° |
| 2026-04-28 23:24 | 28.09416 | 34.28021 | 35940 ft | 435 kts | 302° |
| 2026-04-28 23:25 | 28.13234 | 34.22725 | 35949 ft | 433 kts | 303° |
| 2026-04-28 23:25 | 28.17049 | 34.17434 | 35952 ft | 433 kts | 303° |
| 2026-04-28 23:26 | 28.20863 | 34.12138 | 35969 ft | 434 kts | 303° |
| 2026-04-28 23:26 | 28.24038 | 34.07727 | 35976 ft | 435 kts | 303° |
| 2026-04-28 23:27 | 28.28479 | 34.01544 | 35980 ft | 433 kts | 303° |
| 2026-04-28 23:27 | 28.31663 | 33.97109 | 35973 ft | 433 kts | 303° |
| 2026-04-28 23:28 | 28.35448 | 33.91825 | 35971 ft | 434 kts | 303° |
| 2026-04-28 23:28 | 28.39263 | 33.86495 | 35973 ft | 435 kts | 303° |
| 2026-04-28 23:29 | 28.43074 | 33.81163 | 35976 ft | 434 kts | 303° |
| 2026-04-28 23:29 | 28.46878 | 33.75837 | 35959 ft | 433 kts | 303° |
| 2026-04-28 23:30 | 28.50667 | 33.70522 | 35974 ft | 433 kts | 303° |
| 2026-04-28 23:30 | 28.54434 | 33.65230 | 35979 ft | 435 kts | 302° |
| 2026-04-28 23:31 | 28.58245 | 33.59864 | 35970 ft | 437 kts | 303° |
| 2026-04-28 23:31 | 28.62071 | 33.54475 | 35992 ft | 437 kts | 303° |
| 2026-04-28 23:32 | 28.65889 | 33.49091 | 35996 ft | 436 kts | 303° |
| 2026-04-28 23:32 | 28.69673 | 33.43757 | 35992 ft | 435 kts | 303° |
| 2026-04-28 23:33 | 28.73479 | 33.38388 | 35991 ft | 435 kts | 303° |
| 2026-04-28 23:33 | 28.77278 | 33.33018 | 35994 ft | 435 kts | 303° |
| 2026-04-28 23:34 | 28.81079 | 33.27637 | 35991 ft | 435 kts | 303° |
| 2026-04-28 23:34 | 28.84878 | 33.22252 | 35993 ft | 435 kts | 303° |
| 2026-04-28 23:35 | 28.88646 | 33.16905 | 35982 ft | 435 kts | 303° |
| 2026-04-28 23:35 | 28.92435 | 33.11521 | 35983 ft | 435 kts | 303° |
| 2026-04-28 23:36 | 28.96226 | 33.06127 | 35989 ft | 435 kts | 303° |
| 2026-04-28 23:36 | 29.00017 | 33.00726 | 35991 ft | 435 kts | 303° |
| 2026-04-28 23:37 | 29.03805 | 32.95321 | 35990 ft | 435 kts | 303° |
| 2026-04-28 23:37 | 29.07565 | 32.89951 | 35992 ft | 435 kts | 303° |
| 2026-04-28 23:38 | 29.11353 | 32.84533 | 35984 ft | 435 kts | 303° |
| 2026-04-28 23:38 | 29.15129 | 32.79124 | 35988 ft | 435 kts | 303° |
| 2026-04-28 23:39 | 29.18905 | 32.73709 | 35994 ft | 435 kts | 303° |
| 2026-04-28 23:39 | 29.22681 | 32.68285 | 35999 ft | 436 kts | 303° |
| 2026-04-28 23:40 | 29.26456 | 32.62858 | 35998 ft | 435 kts | 303° |
| 2026-04-28 23:40 | 29.30218 | 32.57429 | 35999 ft | 435 kts | 303° |
| 2026-04-28 23:41 | 29.33936 | 32.52011 | 36001 ft | 435 kts | 303° |
| 2026-04-28 23:41 | 29.37675 | 32.46547 | 35997 ft | 436 kts | 303° |
| 2026-04-28 23:42 | 29.41422 | 32.41071 | 36002 ft | 436 kts | 303° |
| 2026-04-28 23:42 | 29.45172 | 32.35586 | 36005 ft | 436 kts | 303° |
| 2026-04-28 23:43 | 29.48891 | 32.30138 | 36010 ft | 436 kts | 303° |
| 2026-04-28 23:43 | 29.52629 | 32.24656 | 36008 ft | 436 kts | 304° |
| 2026-04-28 23:44 | 29.56363 | 32.19174 | 36010 ft | 435 kts | 304° |
| 2026-04-28 23:44 | 29.60087 | 32.13696 | 36009 ft | 435 kts | 304° |
| 2026-04-28 23:45 | 29.63815 | 32.08206 | 36009 ft | 435 kts | 304° |
| 2026-04-28 23:45 | 29.67538 | 32.02715 | 36011 ft | 436 kts | 304° |
| 2026-04-28 23:46 | 29.71262 | 31.97215 | 36008 ft | 436 kts | 304° |
| 2026-04-28 23:46 | 29.74964 | 31.91742 | 36005 ft | 435 kts | 304° |
| 2026-04-28 23:47 | 29.78675 | 31.86245 | 36006 ft | 434 kts | 304° |
| 2026-04-28 23:47 | 29.82294 | 31.80661 | 36001 ft | 434 kts | 303° |
| 2026-04-28 23:48 | 29.85864 | 31.75075 | 36003 ft | 435 kts | 303° |
| 2026-04-28 23:48 | 29.89445 | 31.69500 | 35998 ft | 435 kts | 303° |
| 2026-04-28 23:49 | 29.93054 | 31.63890 | 36000 ft | 435 kts | 303° |
| 2026-04-28 23:49 | 29.96669 | 31.58289 | 36002 ft | 435 kts | 303° |
| 2026-04-28 23:50 | 30.00278 | 31.52689 | 35996 ft | 435 kts | 304° |
| 2026-04-28 23:50 | 30.03864 | 31.47113 | 36000 ft | 435 kts | 304° |
| 2026-04-28 23:51 | 30.07467 | 31.41507 | 35993 ft | 434 kts | 304° |
| 2026-04-28 23:51 | 30.11485 | 31.36268 | 35992 ft | 438 kts | 313° |
| 2026-04-28 23:52 | 30.15968 | 31.31502 | 35998 ft | 438 kts | 314° |
| 2026-04-28 23:52 | 30.20444 | 31.26738 | 36001 ft | 437 kts | 314° |
| 2026-04-28 23:53 | 30.24902 | 31.21963 | 36003 ft | 436 kts | 314° |
| 2026-04-28 23:53 | 30.29319 | 31.17214 | 36008 ft | 436 kts | 314° |
| 2026-04-28 23:54 | 30.33765 | 31.12424 | 36017 ft | 436 kts | 314° |
| 2026-04-28 23:54 | 30.38213 | 31.07626 | 36022 ft | 437 kts | 314° |
| 2026-04-28 23:55 | 30.42653 | 31.02831 | 36018 ft | 436 kts | 314° |
| 2026-04-28 23:55 | 30.47092 | 30.98032 | 36015 ft | 436 kts | 314° |
| 2026-04-28 23:56 | 30.51497 | 30.93263 | 36014 ft | 436 kts | 314° |
| 2026-04-28 23:56 | 30.55929 | 30.88457 | 36016 ft | 435 kts | 314° |
| 2026-04-28 23:57 | 30.60349 | 30.83660 | 36027 ft | 435 kts | 314° |
| 2026-04-28 23:57 | 30.64766 | 30.78858 | 36027 ft | 435 kts | 314° |
| 2026-04-28 23:58 | 30.69186 | 30.74047 | 36017 ft | 435 kts | 314° |
| 2026-04-28 23:58 | 30.73569 | 30.69271 | 36020 ft | 434 kts | 314° |
| 2026-04-28 23:59 | 30.77973 | 30.64465 | 36021 ft | 434 kts | 314° |
| 2026-04-28 23:59 | 30.82376 | 30.59653 | 36021 ft | 434 kts | 314° |
| 2026-04-29 00:00 | 30.86771 | 30.54845 | 36025 ft | 433 kts | 314° |
| 2026-04-29 00:00 | 30.91169 | 30.50025 | 36027 ft | 433 kts | 314° |
| 2026-04-29 00:01 | 30.95533 | 30.45238 | 36026 ft | 433 kts | 314° |
| 2026-04-29 00:01 | 30.99909 | 30.40430 | 36023 ft | 432 kts | 314° |
| 2026-04-29 00:02 | 31.04291 | 30.35610 | 36027 ft | 432 kts | 314° |
| 2026-04-29 00:02 | 31.08134 | 30.30276 | 36037 ft | 429 kts | 302° |
| 2026-04-29 00:03 | 31.10932 | 30.24116 | 36036 ft | 431 kts | 291° |
| 2026-04-29 00:03 | 31.12752 | 30.17497 | 36048 ft | 431 kts | 288° |
| 2026-04-29 00:04 | 31.14521 | 30.10809 | 36045 ft | 430 kts | 289° |
| 2026-04-29 00:04 | 31.16332 | 30.04153 | 36051 ft | 429 kts | 289° |
| 2026-04-29 00:05 | 31.18339 | 29.97610 | 36058 ft | 428 kts | 295° |
| 2026-04-29 00:05 | 31.21123 | 29.91469 | 36058 ft | 428 kts | 301° |
| 2026-04-29 00:06 | 31.24524 | 29.85804 | 36052 ft | 428 kts | 306° |
| 2026-04-29 00:06 | 31.28063 | 29.80213 | 36048 ft | 428 kts | 306° |
| 2026-04-29 00:07 | 31.31591 | 29.74602 | 36043 ft | 427 kts | 306° |
| 2026-04-29 00:07 | 31.35094 | 29.68987 | 36042 ft | 427 kts | 305° |
| 2026-04-29 00:08 | 31.38564 | 29.63402 | 36032 ft | 426 kts | 305° |
| 2026-04-29 00:08 | 31.42049 | 29.57786 | 36031 ft | 426 kts | 305° |
| 2026-04-29 00:09 | 31.45529 | 29.52169 | 36034 ft | 425 kts | 305° |
| 2026-04-29 00:09 | 31.49002 | 29.46556 | 36033 ft | 425 kts | 306° |
| 2026-04-29 00:10 | 31.52465 | 29.40952 | 36035 ft | 425 kts | 306° |
| 2026-04-29 00:10 | 31.55908 | 29.35372 | 36032 ft | 425 kts | 306° |
| 2026-04-29 00:11 | 31.59366 | 29.29758 | 36033 ft | 424 kts | 305° |
| 2026-04-29 00:12 | 31.64519 | 29.21309 | 36030 ft | 424 kts | 305° |
| 2026-04-29 00:12 | 31.67946 | 29.15679 | 36030 ft | 423 kts | 305° |
| 2026-04-29 00:13 | 31.71402 | 29.10083 | 36032 ft | 423 kts | 308° |
| 2026-04-29 00:13 | 31.75384 | 29.05046 | 36032 ft | 424 kts | 315° |
| 2026-04-29 00:14 | 31.79916 | 29.00563 | 36038 ft | 425 kts | 319° |
| 2026-04-29 00:14 | 31.84516 | 28.96177 | 36032 ft | 425 kts | 319° |
| 2026-04-29 00:15 | 31.89068 | 28.91818 | 36030 ft | 424 kts | 319° |
| 2026-04-29 00:15 | 31.93641 | 28.87413 | 36032 ft | 424 kts | 318° |
| 2026-04-29 00:16 | 31.98217 | 28.82990 | 36029 ft | 425 kts | 318° |
| 2026-04-29 00:16 | 32.02019 | 28.79309 | 36031 ft | 424 kts | 318° |
| 2026-04-29 00:17 | 32.06575 | 28.74892 | 36030 ft | 424 kts | 318° |
| 2026-04-29 00:17 | 32.11128 | 28.70474 | 36029 ft | 423 kts | 318° |
| 2026-04-29 00:18 | 32.15676 | 28.66054 | 36028 ft | 423 kts | 318° |
| 2026-04-29 00:18 | 32.20225 | 28.61627 | 36031 ft | 423 kts | 318° |
| 2026-04-29 00:19 | 32.24739 | 28.57229 | 36034 ft | 423 kts | 318° |
| 2026-04-29 00:19 | 32.29281 | 28.52796 | 36034 ft | 423 kts | 318° |
| 2026-04-29 00:20 | 32.33815 | 28.48367 | 36029 ft | 423 kts | 318° |
| 2026-04-29 00:20 | 32.38345 | 28.43935 | 36034 ft | 423 kts | 318° |
| 2026-04-29 00:21 | 32.42877 | 28.39495 | 36028 ft | 422 kts | 318° |
| 2026-04-29 00:21 | 32.47406 | 28.35052 | 36027 ft | 422 kts | 318° |
| 2026-04-29 00:22 | 32.51899 | 28.30638 | 36027 ft | 422 kts | 318° |
| 2026-04-29 00:22 | 32.56434 | 28.26177 | 36031 ft | 422 kts | 318° |
| 2026-04-29 00:23 | 32.60959 | 28.21720 | 36026 ft | 422 kts | 318° |
| 2026-04-29 00:23 | 32.65475 | 28.17266 | 36020 ft | 422 kts | 318° |
| 2026-04-29 00:24 | 32.69955 | 28.12842 | 36031 ft | 421 kts | 318° |
| 2026-04-29 00:24 | 32.74460 | 28.08386 | 36031 ft | 421 kts | 318° |
| 2026-04-29 00:25 | 32.78960 | 28.03930 | 36029 ft | 421 kts | 318° |
| 2026-04-29 00:25 | 32.83462 | 27.99465 | 36031 ft | 421 kts | 318° |
| 2026-04-29 00:26 | 32.87966 | 27.94992 | 36030 ft | 421 kts | 318° |
| 2026-04-29 00:26 | 32.92470 | 27.90514 | 36031 ft | 421 kts | 318° |
| 2026-04-29 00:27 | 32.96969 | 27.86034 | 36034 ft | 421 kts | 318° |
| 2026-04-29 00:27 | 33.01433 | 27.81583 | 36031 ft | 420 kts | 318° |
| 2026-04-29 00:28 | 33.05926 | 27.77096 | 36038 ft | 420 kts | 318° |
| 2026-04-29 00:28 | 33.10389 | 27.72634 | 36021 ft | 420 kts | 318° |
| 2026-04-29 00:29 | 33.14874 | 27.68143 | 36022 ft | 420 kts | 318° |
| 2026-04-29 00:29 | 33.19353 | 27.63653 | 36034 ft | 420 kts | 318° |
| 2026-04-29 00:30 | 33.23826 | 27.59162 | 36038 ft | 420 kts | 318° |
| 2026-04-29 00:30 | 33.28299 | 27.54665 | 36037 ft | 420 kts | 318° |
| 2026-04-29 00:31 | 33.32743 | 27.50190 | 36029 ft | 420 kts | 318° |
| 2026-04-29 00:31 | 33.37216 | 27.45680 | 36028 ft | 420 kts | 318° |
| 2026-04-29 00:32 | 33.41682 | 27.41171 | 36031 ft | 420 kts | 318° |
| 2026-04-29 00:32 | 33.46153 | 27.36651 | 36031 ft | 420 kts | 318° |
| 2026-04-29 00:33 | 33.50618 | 27.32130 | 36030 ft | 420 kts | 318° |
| 2026-04-29 00:33 | 33.55078 | 27.27608 | 36031 ft | 420 kts | 318° |
| 2026-04-29 00:34 | 33.59512 | 27.23107 | 36031 ft | 420 kts | 318° |
| 2026-04-29 00:34 | 33.63969 | 27.18575 | 36031 ft | 419 kts | 318° |
| 2026-04-29 00:35 | 33.68418 | 27.14045 | 36029 ft | 419 kts | 318° |
| 2026-04-29 00:35 | 33.72869 | 27.09506 | 36031 ft | 419 kts | 318° |
| 2026-04-29 00:36 | 33.77289 | 27.04993 | 36030 ft | 419 kts | 318° |
| 2026-04-29 00:36 | 33.81739 | 27.00444 | 36032 ft | 419 kts | 318° |
| 2026-04-29 00:37 | 33.86184 | 26.95892 | 36028 ft | 419 kts | 318° |
| 2026-04-29 00:37 | 33.90627 | 26.91336 | 36032 ft | 419 kts | 318° |
| 2026-04-29 00:38 | 33.95066 | 26.86777 | 36029 ft | 419 kts | 318° |
| 2026-04-29 00:38 | 33.99503 | 26.82215 | 36030 ft | 419 kts | 318° |
| 2026-04-29 00:39 | 34.04015 | 26.77829 | 36029 ft | 420 kts | 320° |
| 2026-04-29 00:39 | 34.08684 | 26.73572 | 36034 ft | 420 kts | 321° |
| 2026-04-29 00:40 | 34.13342 | 26.69308 | 36027 ft | 420 kts | 320° |
| 2026-04-29 00:40 | 34.17977 | 26.65018 | 36032 ft | 420 kts | 320° |
| 2026-04-29 00:41 | 34.22608 | 26.60707 | 36031 ft | 420 kts | 320° |
| 2026-04-29 00:41 | 34.27212 | 26.56411 | 36034 ft | 420 kts | 320° |
| 2026-04-29 00:42 | 34.31846 | 26.52081 | 36030 ft | 420 kts | 320° |
| 2026-04-29 00:42 | 34.36475 | 26.47750 | 36029 ft | 420 kts | 320° |
| 2026-04-29 00:43 | 34.41096 | 26.43421 | 36030 ft | 420 kts | 320° |
| 2026-04-29 00:43 | 34.45724 | 26.39078 | 36030 ft | 420 kts | 320° |
| 2026-04-29 00:44 | 34.50348 | 26.34733 | 36029 ft | 420 kts | 320° |
| 2026-04-29 00:44 | 34.54973 | 26.30381 | 36030 ft | 421 kts | 320° |
| 2026-04-29 00:45 | 34.59595 | 26.26026 | 36027 ft | 420 kts | 320° |
| 2026-04-29 00:45 | 34.64174 | 26.21705 | 36030 ft | 420 kts | 320° |
| 2026-04-29 00:46 | 34.68785 | 26.17347 | 36028 ft | 420 kts | 320° |
| 2026-04-29 00:46 | 34.73403 | 26.12976 | 36033 ft | 420 kts | 320° |
| 2026-04-29 00:47 | 34.78014 | 26.08606 | 36038 ft | 420 kts | 320° |
| 2026-04-29 00:47 | 34.82630 | 26.04225 | 36035 ft | 421 kts | 320° |
| 2026-04-29 00:48 | 34.87222 | 25.99860 | 36041 ft | 421 kts | 320° |
| 2026-04-29 00:48 | 34.91835 | 25.95468 | 36042 ft | 420 kts | 320° |
| 2026-04-29 00:49 | 34.96456 | 25.91062 | 36049 ft | 421 kts | 320° |
| 2026-04-29 00:49 | 35.01077 | 25.86650 | 36052 ft | 422 kts | 320° |
| 2026-04-29 00:50 | 35.05693 | 25.82236 | 36057 ft | 421 kts | 320° |
| 2026-04-29 00:50 | 35.10282 | 25.77841 | 36059 ft | 421 kts | 320° |
| 2026-04-29 00:51 | 35.14897 | 25.73397 | 36059 ft | 422 kts | 320° |
| 2026-04-29 00:51 | 35.19521 | 25.68934 | 36064 ft | 424 kts | 319° |
| 2026-04-29 00:52 | 35.24155 | 25.64467 | 36077 ft | 424 kts | 320° |
| 2026-04-29 00:52 | 35.28776 | 25.60018 | 36083 ft | 424 kts | 320° |
| 2026-04-29 00:53 | 35.33420 | 25.55540 | 36068 ft | 424 kts | 320° |
| 2026-04-29 00:53 | 35.38059 | 25.51058 | 36083 ft | 424 kts | 319° |
| 2026-04-29 00:54 | 35.42686 | 25.46580 | 36086 ft | 424 kts | 319° |
| 2026-04-29 00:54 | 35.47285 | 25.42121 | 36085 ft | 424 kts | 319° |
| 2026-04-29 00:55 | 35.51922 | 25.37620 | 36078 ft | 424 kts | 319° |
| 2026-04-29 00:55 | 35.56551 | 25.33119 | 36078 ft | 424 kts | 319° |
| 2026-04-29 00:56 | 35.61178 | 25.28614 | 36076 ft | 424 kts | 319° |
| 2026-04-29 00:56 | 35.65780 | 25.24125 | 36075 ft | 425 kts | 319° |
| 2026-04-29 00:57 | 35.70408 | 25.19606 | 36080 ft | 425 kts | 319° |
| 2026-04-29 00:57 | 35.75035 | 25.15079 | 36079 ft | 425 kts | 319° |
| 2026-04-29 00:58 | 35.79677 | 25.10531 | 36080 ft | 426 kts | 319° |
| 2026-04-29 00:58 | 35.84319 | 25.05976 | 36076 ft | 426 kts | 319° |
| 2026-04-29 00:59 | 35.88927 | 25.01448 | 36076 ft | 427 kts | 319° |
| 2026-04-29 00:59 | 35.93599 | 24.96848 | 36072 ft | 427 kts | 319° |
| 2026-04-29 01:00 | 35.98211 | 24.92302 | 36073 ft | 427 kts | 319° |
| 2026-04-29 01:00 | 36.02856 | 24.87716 | 36077 ft | 428 kts | 319° |
| 2026-04-29 01:01 | 36.07510 | 24.83114 | 36078 ft | 428 kts | 319° |
| 2026-04-29 01:01 | 36.12166 | 24.78508 | 36076 ft | 428 kts | 319° |
| 2026-04-29 01:02 | 36.16820 | 24.73897 | 36072 ft | 428 kts | 319° |
| 2026-04-29 01:02 | 36.21466 | 24.69284 | 36075 ft | 428 kts | 319° |
| 2026-04-29 01:03 | 36.26116 | 24.64661 | 36076 ft | 429 kts | 319° |
| 2026-04-29 01:03 | 36.29986 | 24.60806 | 36075 ft | 429 kts | 319° |
| 2026-04-29 01:04 | 36.34640 | 24.56164 | 36080 ft | 430 kts | 319° |
| 2026-04-29 01:04 | 36.40065 | 24.50744 | 36078 ft | 430 kts | 319° |
| 2026-04-29 01:05 | 36.43941 | 24.46867 | 36087 ft | 430 kts | 319° |
| 2026-04-29 01:05 | 36.48602 | 24.42196 | 36089 ft | 431 kts | 319° |
| 2026-04-29 01:06 | 36.53279 | 24.37497 | 36085 ft | 431 kts | 319° |
| 2026-04-29 01:06 | 36.57920 | 24.32825 | 36085 ft | 432 kts | 319° |
| 2026-04-29 01:07 | 36.62588 | 24.28119 | 36086 ft | 431 kts | 319° |
| 2026-04-29 01:07 | 36.67255 | 24.23404 | 36088 ft | 432 kts | 319° |
| 2026-04-29 01:08 | 36.71937 | 24.18669 | 36087 ft | 433 kts | 319° |
| 2026-04-29 01:08 | 36.76625 | 24.13919 | 36086 ft | 434 kts | 319° |
| 2026-04-29 01:09 | 36.81291 | 24.09183 | 36090 ft | 434 kts | 319° |
| 2026-04-29 01:09 | 36.85979 | 24.04417 | 36090 ft | 434 kts | 319° |
| 2026-04-29 01:10 | 36.90678 | 23.99633 | 36093 ft | 435 kts | 318° |
| 2026-04-29 01:10 | 36.95356 | 23.94868 | 36091 ft | 436 kts | 318° |
| 2026-04-29 01:11 | 37.00063 | 23.90070 | 36090 ft | 436 kts | 318° |
| 2026-04-29 01:11 | 37.04766 | 23.85266 | 36090 ft | 436 kts | 318° |
| 2026-04-29 01:12 | 37.09473 | 23.80449 | 36089 ft | 437 kts | 318° |
| 2026-04-29 01:12 | 37.14190 | 23.75613 | 36094 ft | 438 kts | 318° |
| 2026-04-29 01:13 | 37.18904 | 23.70772 | 36104 ft | 438 kts | 318° |
| 2026-04-29 01:13 | 37.23614 | 23.65928 | 36094 ft | 438 kts | 318° |
| 2026-04-29 01:14 | 37.28301 | 23.61100 | 36098 ft | 438 kts | 318° |
| 2026-04-29 01:14 | 37.33016 | 23.56233 | 36103 ft | 439 kts | 318° |
| 2026-04-29 01:15 | 37.37736 | 23.51354 | 36114 ft | 439 kts | 318° |
| 2026-04-29 01:15 | 37.42460 | 23.46463 | 36102 ft | 440 kts | 318° |
| 2026-04-29 01:16 | 37.47185 | 23.41561 | 36106 ft | 440 kts | 318° |
| 2026-04-29 01:16 | 37.51893 | 23.36671 | 36109 ft | 441 kts | 318° |
| 2026-04-29 01:17 | 37.56631 | 23.31739 | 36104 ft | 441 kts | 318° |
| 2026-04-29 01:17 | 37.61371 | 23.26798 | 36106 ft | 441 kts | 318° |
| 2026-04-29 01:18 | 37.66110 | 23.21849 | 36109 ft | 442 kts | 318° |
| 2026-04-29 01:18 | 37.73189 | 23.14439 | 36111 ft | 442 kts | 318° |
| 2026-04-29 01:19 | 37.77928 | 23.09469 | 36115 ft | 443 kts | 318° |
| 2026-04-29 01:19 | 37.82673 | 23.04484 | 36118 ft | 444 kts | 318° |
| 2026-04-29 01:20 | 37.87426 | 22.99480 | 36106 ft | 444 kts | 318° |
| 2026-04-29 01:20 | 37.92167 | 22.94482 | 36117 ft | 443 kts | 318° |
| 2026-04-29 01:21 | 37.96815 | 22.89329 | 36110 ft | 443 kts | 315° |
| 2026-04-29 01:21 | 38.01307 | 22.84037 | 36114 ft | 444 kts | 315° |
| 2026-04-29 01:22 | 38.05859 | 22.78716 | 36112 ft | 445 kts | 315° |
| 2026-04-29 01:22 | 38.10443 | 22.73396 | 36116 ft | 445 kts | 315° |
| 2026-04-29 01:23 | 38.14985 | 22.68117 | 36115 ft | 445 kts | 315° |
| 2026-04-29 01:23 | 38.19563 | 22.62789 | 36114 ft | 446 kts | 315° |
| 2026-04-29 01:24 | 38.24134 | 22.57458 | 36117 ft | 446 kts | 315° |
| 2026-04-29 01:24 | 38.28706 | 22.52116 | 36116 ft | 447 kts | 315° |
| 2026-04-29 01:25 | 38.33270 | 22.46773 | 36114 ft | 447 kts | 315° |
| 2026-04-29 01:25 | 38.37854 | 22.41398 | 36115 ft | 447 kts | 315° |
| 2026-04-29 01:26 | 38.42440 | 22.36010 | 36120 ft | 448 kts | 315° |
| 2026-04-29 01:26 | 38.47021 | 22.30618 | 36102 ft | 448 kts | 315° |
| 2026-04-29 01:27 | 38.51575 | 22.25248 | 36123 ft | 448 kts | 315° |
| 2026-04-29 01:27 | 38.56161 | 22.19832 | 36129 ft | 449 kts | 315° |
| 2026-04-29 01:28 | 38.60753 | 22.14399 | 36130 ft | 450 kts | 315° |
| 2026-04-29 01:28 | 38.65341 | 22.08963 | 36137 ft | 449 kts | 315° |
| 2026-04-29 01:29 | 38.69931 | 22.03513 | 36125 ft | 449 kts | 315° |
| 2026-04-29 01:29 | 38.74514 | 21.98060 | 36122 ft | 450 kts | 315° |
| 2026-04-29 01:30 | 38.79099 | 21.92595 | 36122 ft | 450 kts | 315° |
| 2026-04-29 01:30 | 38.83661 | 21.87147 | 36120 ft | 451 kts | 315° |
| 2026-04-29 01:31 | 38.88244 | 21.81663 | 36145 ft | 450 kts | 315° |
| 2026-04-29 01:31 | 38.92830 | 21.76167 | 36122 ft | 450 kts | 315° |
| 2026-04-29 01:32 | 38.97404 | 21.70674 | 36132 ft | 451 kts | 315° |
| 2026-04-29 01:32 | 39.01993 | 21.65153 | 36128 ft | 451 kts | 315° |
| 2026-04-29 01:33 | 39.06577 | 21.59629 | 36123 ft | 451 kts | 315° |
| 2026-04-29 01:33 | 39.11129 | 21.54133 | 36136 ft | 450 kts | 315° |
| 2026-04-29 01:34 | 39.15698 | 21.48604 | 36127 ft | 451 kts | 315° |
| 2026-04-29 01:34 | 39.20277 | 21.43055 | 36123 ft | 451 kts | 315° |
| 2026-04-29 01:35 | 39.24852 | 21.37499 | 36128 ft | 452 kts | 315° |
| 2026-04-29 01:35 | 39.29430 | 21.31929 | 36136 ft | 452 kts | 315° |
| 2026-04-29 01:36 | 39.34009 | 21.26348 | 36292 ft | 454 kts | 315° |
| 2026-04-29 01:36 | 39.36298 | 21.23554 | 36662 ft | 451 kts | 315° |
| 2026-04-29 01:36 | 39.38567 | 21.20783 | 37118 ft | 446 kts | 314° |
| 2026-04-29 01:37 | 39.40817 | 21.18033 | 37512 ft | 443 kts | 314° |
| 2026-04-29 01:37 | 39.43048 | 21.15302 | 37869 ft | 440 kts | 314° |
| 2026-04-29 01:37 | 39.45271 | 21.12578 | 38067 ft | 441 kts | 314° |
| 2026-04-29 01:37 | 39.47500 | 21.09842 | 38099 ft | 442 kts | 314° |
| 2026-04-29 01:38 | 39.51964 | 21.04358 | 38114 ft | 442 kts | 314° |
| 2026-04-29 01:38 | 39.56381 | 20.98925 | 38140 ft | 440 kts | 314° |
| 2026-04-29 01:39 | 39.60822 | 20.93450 | 38137 ft | 440 kts | 314° |
| 2026-04-29 01:39 | 39.65253 | 20.87977 | 38118 ft | 440 kts | 314° |
| 2026-04-29 01:40 | 39.69682 | 20.82550 | 38125 ft | 441 kts | 316° |
| 2026-04-29 01:40 | 39.74585 | 20.77682 | 38143 ft | 443 kts | 321° |
| 2026-04-29 01:41 | 39.79599 | 20.73013 | 38152 ft | 443 kts | 321° |
| 2026-04-29 01:41 | 39.84601 | 20.68313 | 38130 ft | 443 kts | 321° |
| 2026-04-29 01:42 | 39.89587 | 20.63593 | 38152 ft | 443 kts | 321° |
| 2026-04-29 01:42 | 39.94534 | 20.58893 | 38129 ft | 442 kts | 321° |
| 2026-04-29 01:43 | 39.99516 | 20.54152 | 38123 ft | 442 kts | 321° |
| 2026-04-29 01:43 | 40.04485 | 20.49417 | 38123 ft | 442 kts | 321° |
| 2026-04-29 01:44 | 40.09448 | 20.44672 | 38128 ft | 442 kts | 321° |
| 2026-04-29 01:44 | 40.14406 | 20.39895 | 38119 ft | 443 kts | 321° |
| 2026-04-29 01:45 | 40.19364 | 20.35108 | 38109 ft | 442 kts | 321° |
| 2026-04-29 01:45 | 40.24282 | 20.30353 | 38121 ft | 442 kts | 321° |
| 2026-04-29 01:46 | 40.29232 | 20.25558 | 38124 ft | 443 kts | 321° |
| 2026-04-29 01:46 | 40.34178 | 20.20760 | 38110 ft | 442 kts | 321° |
| 2026-04-29 01:47 | 40.39125 | 20.15951 | 38110 ft | 442 kts | 321° |
| 2026-04-29 01:47 | 40.44042 | 20.11163 | 38105 ft | 442 kts | 321° |
| 2026-04-29 01:48 | 40.48977 | 20.06349 | 38106 ft | 442 kts | 321° |
| 2026-04-29 01:48 | 40.53912 | 20.01524 | 38102 ft | 442 kts | 321° |
| 2026-04-29 01:49 | 40.58849 | 19.96689 | 38107 ft | 442 kts | 321° |
| 2026-04-29 01:49 | 40.63785 | 19.91848 | 38091 ft | 442 kts | 321° |
| 2026-04-29 01:50 | 40.68708 | 19.87008 | 38090 ft | 442 kts | 321° |
| 2026-04-29 01:50 | 40.73634 | 19.82156 | 38093 ft | 442 kts | 321° |
| 2026-04-29 01:51 | 40.78566 | 19.77289 | 38086 ft | 443 kts | 321° |
| 2026-04-29 01:51 | 40.83494 | 19.72417 | 38089 ft | 442 kts | 321° |
| 2026-04-29 01:52 | 40.88387 | 19.67571 | 38086 ft | 442 kts | 321° |
| 2026-04-29 01:52 | 40.93317 | 19.62679 | 38084 ft | 443 kts | 321° |
| 2026-04-29 01:53 | 40.97418 | 19.58602 | 38087 ft | 443 kts | 321° |
| 2026-04-29 01:53 | 41.02352 | 19.53687 | 38082 ft | 443 kts | 321° |
| 2026-04-29 01:54 | 41.08080 | 19.47971 | 38084 ft | 443 kts | 321° |
| 2026-04-29 01:54 | 41.12183 | 19.43869 | 38080 ft | 443 kts | 320° |
| 2026-04-29 01:55 | 41.17104 | 19.38940 | 38083 ft | 443 kts | 320° |
| 2026-04-29 01:55 | 41.22028 | 19.33998 | 38080 ft | 443 kts | 320° |
| 2026-04-29 01:56 | 41.26948 | 19.29051 | 38082 ft | 444 kts | 320° |
| 2026-04-29 01:56 | 41.31867 | 19.24094 | 38081 ft | 444 kts | 320° |
| 2026-04-29 01:57 | 41.36764 | 19.19150 | 38083 ft | 444 kts | 320° |
| 2026-04-29 01:57 | 41.41681 | 19.14177 | 38079 ft | 443 kts | 320° |
| 2026-04-29 01:58 | 41.46593 | 19.09199 | 38081 ft | 443 kts | 320° |
| 2026-04-29 01:58 | 41.51496 | 19.04201 | 38081 ft | 444 kts | 320° |
| 2026-04-29 01:59 | 41.56402 | 18.99181 | 38083 ft | 444 kts | 320° |
| 2026-04-29 01:59 | 41.61270 | 18.94192 | 38080 ft | 443 kts | 320° |
| 2026-04-29 02:00 | 41.66168 | 18.89164 | 38078 ft | 443 kts | 320° |
| 2026-04-29 02:00 | 41.71064 | 18.84129 | 38078 ft | 443 kts | 320° |
| 2026-04-29 02:01 | 41.75944 | 18.79100 | 38074 ft | 443 kts | 320° |
| 2026-04-29 02:01 | 41.80798 | 18.74087 | 38077 ft | 443 kts | 320° |
| 2026-04-29 02:02 | 41.85682 | 18.69034 | 38078 ft | 443 kts | 320° |
| 2026-04-29 02:02 | 41.90558 | 18.63979 | 38075 ft | 443 kts | 320° |
| 2026-04-29 02:03 | 41.95424 | 18.58923 | 38075 ft | 442 kts | 320° |
| 2026-04-29 02:03 | 42.00268 | 18.53818 | 38071 ft | 441 kts | 317° |
| 2026-04-29 02:04 | 42.04555 | 18.47944 | 38074 ft | 439 kts | 309° |
| 2026-04-29 02:04 | 42.08508 | 18.41739 | 38074 ft | 439 kts | 309° |
| 2026-04-29 02:05 | 42.12480 | 18.35492 | 38081 ft | 438 kts | 309° |
| 2026-04-29 02:05 | 42.16458 | 18.29258 | 38075 ft | 438 kts | 309° |
| 2026-04-29 02:06 | 42.20437 | 18.23027 | 38066 ft | 438 kts | 309° |
| 2026-04-29 02:06 | 42.24417 | 18.16786 | 38073 ft | 438 kts | 309° |
| 2026-04-29 02:07 | 42.28362 | 18.10588 | 38073 ft | 438 kts | 309° |
| 2026-04-29 02:07 | 42.32335 | 18.04330 | 38074 ft | 438 kts | 309° |
| 2026-04-29 02:08 | 42.36301 | 17.98070 | 38054 ft | 439 kts | 309° |
| 2026-04-29 02:08 | 42.40273 | 17.91789 | 38072 ft | 439 kts | 309° |
| 2026-04-29 02:09 | 42.44241 | 17.85499 | 38075 ft | 439 kts | 309° |
| 2026-04-29 02:09 | 42.48183 | 17.79237 | 38069 ft | 439 kts | 309° |
| 2026-04-29 02:10 | 42.52140 | 17.72940 | 38070 ft | 439 kts | 309° |
| 2026-04-29 02:10 | 42.56095 | 17.66630 | 38074 ft | 439 kts | 308° |
| 2026-04-29 02:11 | 42.60048 | 17.60311 | 38077 ft | 439 kts | 308° |
| 2026-04-29 02:11 | 42.63978 | 17.54015 | 38077 ft | 439 kts | 308° |
| 2026-04-29 02:12 | 42.67924 | 17.47680 | 38061 ft | 439 kts | 308° |
| 2026-04-29 02:12 | 42.71866 | 17.41336 | 38055 ft | 439 kts | 308° |
| 2026-04-29 02:13 | 42.75806 | 17.34984 | 38057 ft | 439 kts | 308° |
| 2026-04-29 02:13 | 42.79752 | 17.28608 | 38063 ft | 439 kts | 308° |
| 2026-04-29 02:14 | 42.83659 | 17.22280 | 38058 ft | 439 kts | 308° |
| 2026-04-29 02:14 | 42.87588 | 17.15905 | 38065 ft | 438 kts | 308° |
| 2026-04-29 02:15 | 42.91509 | 17.09526 | 38055 ft | 438 kts | 308° |
| 2026-04-29 02:15 | 42.95429 | 17.03138 | 38057 ft | 438 kts | 308° |
| 2026-04-29 02:16 | 42.99337 | 16.96753 | 38055 ft | 438 kts | 308° |
| 2026-04-29 02:16 | 43.03218 | 16.90399 | 38062 ft | 438 kts | 308° |
| 2026-04-29 02:17 | 43.07121 | 16.83996 | 38061 ft | 438 kts | 308° |
| 2026-04-29 02:17 | 43.11025 | 16.77577 | 38065 ft | 438 kts | 308° |
| 2026-04-29 02:18 | 43.14920 | 16.71158 | 38070 ft | 438 kts | 308° |
| 2026-04-29 02:18 | 43.18787 | 16.64772 | 38063 ft | 438 kts | 308° |
| 2026-04-29 02:19 | 43.22671 | 16.58343 | 38066 ft | 437 kts | 308° |
| 2026-04-29 02:19 | 43.26554 | 16.51903 | 38062 ft | 437 kts | 308° |
| 2026-04-29 02:20 | 43.30429 | 16.45460 | 38061 ft | 437 kts | 308° |
| 2026-04-29 02:20 | 43.34303 | 16.39005 | 38053 ft | 438 kts | 308° |
| 2026-04-29 02:21 | 43.38173 | 16.32543 | 38051 ft | 438 kts | 308° |
| 2026-04-29 02:21 | 43.42018 | 16.26108 | 38050 ft | 437 kts | 308° |
| 2026-04-29 02:22 | 43.45877 | 16.19636 | 38054 ft | 436 kts | 308° |
| 2026-04-29 02:22 | 43.49719 | 16.13178 | 38055 ft | 436 kts | 308° |
| 2026-04-29 02:23 | 43.53557 | 16.06713 | 38049 ft | 435 kts | 308° |
| 2026-04-29 02:23 | 43.57390 | 16.00241 | 38056 ft | 435 kts | 307° |
| 2026-04-29 02:24 | 43.61197 | 15.93799 | 38058 ft | 436 kts | 307° |
| 2026-04-29 02:25 | 43.66935 | 15.84062 | 38059 ft | 435 kts | 307° |
| 2026-04-29 02:25 | 43.70755 | 15.77561 | 38063 ft | 435 kts | 307° |
| 2026-04-29 02:26 | 43.74569 | 15.71056 | 38062 ft | 435 kts | 307° |
| 2026-04-29 02:26 | 43.78359 | 15.64579 | 38064 ft | 435 kts | 307° |
| 2026-04-29 02:27 | 43.82170 | 15.58050 | 38058 ft | 435 kts | 307° |
| 2026-04-29 02:27 | 43.85976 | 15.51515 | 38056 ft | 435 kts | 307° |
| 2026-04-29 02:28 | 43.89771 | 15.44984 | 38052 ft | 435 kts | 307° |
| 2026-04-29 02:28 | 43.93540 | 15.38484 | 38053 ft | 435 kts | 307° |
| 2026-04-29 02:29 | 43.97332 | 15.31928 | 38053 ft | 435 kts | 307° |
| 2026-04-29 02:29 | 44.01121 | 15.25364 | 38053 ft | 436 kts | 307° |
| 2026-04-29 02:30 | 44.04905 | 15.18794 | 38045 ft | 435 kts | 307° |
| 2026-04-29 02:30 | 44.08688 | 15.12209 | 38052 ft | 435 kts | 307° |
| 2026-04-29 02:31 | 44.12462 | 15.05626 | 38053 ft | 435 kts | 307° |
| 2026-04-29 02:31 | 44.16205 | 14.99081 | 38053 ft | 435 kts | 307° |
| 2026-04-29 02:32 | 44.19972 | 14.92481 | 38056 ft | 435 kts | 307° |
| 2026-04-29 02:32 | 44.23741 | 14.85860 | 38052 ft | 435 kts | 307° |
| 2026-04-29 02:33 | 44.27499 | 14.79245 | 38050 ft | 434 kts | 307° |
| 2026-04-29 02:33 | 44.31255 | 14.72618 | 38049 ft | 435 kts | 307° |
| 2026-04-29 02:34 | 44.34981 | 14.66028 | 38047 ft | 434 kts | 307° |
| 2026-04-29 02:34 | 44.38725 | 14.59392 | 38050 ft | 435 kts | 307° |
| 2026-04-29 02:35 | 44.42465 | 14.52747 | 38047 ft | 435 kts | 306° |
| 2026-04-29 02:35 | 44.46205 | 14.46086 | 38045 ft | 434 kts | 306° |
| 2026-04-29 02:36 | 44.49916 | 14.39463 | 38050 ft | 434 kts | 306° |
| 2026-04-29 02:36 | 44.53637 | 14.32806 | 38046 ft | 433 kts | 306° |
| 2026-04-29 02:37 | 44.57347 | 14.26153 | 38050 ft | 433 kts | 306° |
| 2026-04-29 02:37 | 44.61058 | 14.19483 | 38048 ft | 434 kts | 306° |
| 2026-04-29 02:38 | 44.64778 | 14.12781 | 38046 ft | 434 kts | 306° |
| 2026-04-29 02:38 | 44.68464 | 14.06125 | 38046 ft | 434 kts | 306° |
| 2026-04-29 02:39 | 44.72168 | 13.99421 | 38046 ft | 433 kts | 306° |
| 2026-04-29 02:39 | 44.75866 | 13.92713 | 38049 ft | 434 kts | 306° |
| 2026-04-29 02:40 | 44.79560 | 13.85996 | 38048 ft | 434 kts | 306° |
| 2026-04-29 02:40 | 44.83250 | 13.79269 | 38052 ft | 434 kts | 306° |
| 2026-04-29 02:41 | 44.86944 | 13.72520 | 38049 ft | 434 kts | 306° |
| 2026-04-29 02:41 | 44.90612 | 13.65802 | 38047 ft | 434 kts | 306° |
| 2026-04-29 02:42 | 44.94293 | 13.59046 | 38047 ft | 434 kts | 306° |
| 2026-04-29 02:42 | 44.97975 | 13.52270 | 38050 ft | 434 kts | 306° |
| 2026-04-29 02:43 | 45.01649 | 13.45494 | 38050 ft | 434 kts | 306° |
| 2026-04-29 02:43 | 45.05322 | 13.38704 | 38048 ft | 435 kts | 306° |
| 2026-04-29 02:44 | 45.08372 | 13.33052 | 38051 ft | 434 kts | 306° |
| 2026-04-29 02:44 | 45.12036 | 13.26248 | 38050 ft | 434 kts | 306° |
| 2026-04-29 02:45 | 45.15700 | 13.19428 | 38051 ft | 434 kts | 306° |
| 2026-04-29 02:45 | 45.19358 | 13.12602 | 38049 ft | 434 kts | 305° |
| 2026-04-29 02:46 | 45.23005 | 13.05781 | 38047 ft | 434 kts | 305° |
| 2026-04-29 02:46 | 45.26668 | 12.98960 | 38051 ft | 435 kts | 307° |
| 2026-04-29 02:47 | 45.30520 | 12.92387 | 38061 ft | 435 kts | 308° |
| 2026-04-29 02:47 | 45.34453 | 12.85824 | 38054 ft | 436 kts | 308° |
| 2026-04-29 02:48 | 45.38369 | 12.79255 | 38062 ft | 435 kts | 308° |
| 2026-04-29 02:48 | 45.42269 | 12.72665 | 38073 ft | 435 kts | 308° |
| 2026-04-29 02:49 | 45.46166 | 12.66051 | 38073 ft | 436 kts | 308° |
| 2026-04-29 02:49 | 45.50058 | 12.59426 | 38075 ft | 436 kts | 308° |
| 2026-04-29 02:50 | 45.53927 | 12.52826 | 38076 ft | 436 kts | 308° |
| 2026-04-29 02:50 | 45.57814 | 12.46180 | 38076 ft | 436 kts | 308° |
| 2026-04-29 02:51 | 45.61691 | 12.39536 | 38076 ft | 435 kts | 308° |
| 2026-04-29 02:51 | 45.65567 | 12.32878 | 38077 ft | 435 kts | 308° |
| 2026-04-29 02:52 | 45.69444 | 12.26202 | 38076 ft | 435 kts | 307° |
| 2026-04-29 02:52 | 45.73292 | 12.19561 | 38075 ft | 436 kts | 307° |
| 2026-04-29 02:53 | 45.77165 | 12.12861 | 38075 ft | 436 kts | 307° |
| 2026-04-29 02:53 | 45.81034 | 12.06150 | 38082 ft | 436 kts | 307° |
| 2026-04-29 02:54 | 45.84876 | 11.99472 | 38077 ft | 436 kts | 307° |
| 2026-04-29 02:54 | 45.88736 | 11.92745 | 38080 ft | 436 kts | 307° |
| 2026-04-29 02:55 | 45.92590 | 11.86013 | 38087 ft | 436 kts | 307° |
| 2026-04-29 02:55 | 45.96439 | 11.79273 | 38105 ft | 435 kts | 307° |
| 2026-04-29 02:56 | 46.00289 | 11.72516 | 38100 ft | 437 kts | 307° |
| 2026-04-29 02:56 | 46.04142 | 11.65734 | 38105 ft | 438 kts | 307° |
| 2026-04-29 02:57 | 46.07977 | 11.58969 | 38104 ft | 438 kts | 307° |
| 2026-04-29 02:57 | 46.11829 | 11.52158 | 38115 ft | 438 kts | 307° |
| 2026-04-29 02:58 | 46.15679 | 11.45336 | 38138 ft | 438 kts | 306° |
| 2026-04-29 02:58 | 46.19496 | 11.38554 | 38146 ft | 436 kts | 307° |
| 2026-04-29 02:59 | 46.23319 | 11.31744 | 38178 ft | 437 kts | 307° |
| 2026-04-29 02:59 | 46.27149 | 11.24905 | 38190 ft | 438 kts | 307° |
| 2026-04-29 03:00 | 46.30979 | 11.18048 | 38180 ft | 437 kts | 306° |
| 2026-04-29 03:00 | 46.34801 | 11.11190 | 38190 ft | 438 kts | 306° |
| 2026-04-29 03:01 | 46.38602 | 11.04352 | 38187 ft | 439 kts | 306° |
| 2026-04-29 03:01 | 46.42434 | 10.97442 | 38160 ft | 439 kts | 306° |
| 2026-04-29 03:02 | 46.46260 | 10.90525 | 38159 ft | 439 kts | 306° |
| 2026-04-29 03:02 | 46.50087 | 10.83591 | 38131 ft | 440 kts | 306° |
| 2026-04-29 03:03 | 46.53901 | 10.76660 | 38126 ft | 440 kts | 306° |
| 2026-04-29 03:03 | 46.57715 | 10.69714 | 38122 ft | 440 kts | 306° |
| 2026-04-29 03:04 | 46.61537 | 10.62733 | 38122 ft | 441 kts | 306° |
| 2026-04-29 03:04 | 46.65325 | 10.55795 | 37444 ft | 441 kts | 308° |
| 2026-04-29 03:04 | 46.67231 | 10.52300 | 37741 ft | 441 kts | 308° |
| 2026-04-29 03:05 | 46.69153 | 10.48773 | 37847 ft | 445 kts | 308° |
| 2026-04-29 03:05 | 46.72938 | 10.41505 | 38002 ft | 455 kts | 302° |
| 2026-04-29 03:06 | 46.75890 | 10.33230 | 38015 ft | 466 kts | 292° |
| 2026-04-29 03:06 | 46.78382 | 10.24441 | 38014 ft | 477 kts | 292° |
| 2026-04-29 03:07 | 46.80921 | 10.15384 | 38012 ft | 485 kts | 292° |
| 2026-04-29 03:07 | 46.83514 | 10.06241 | 38002 ft | 488 kts | 292° |
| 2026-04-29 03:08 | 46.86119 | 9.97100 | 37996 ft | 486 kts | 292° |
| 2026-04-29 03:08 | 46.88714 | 9.87971 | 38002 ft | 486 kts | 292° |
| 2026-04-29 03:09 | 46.91280 | 9.78905 | 37999 ft | 486 kts | 292° |
| 2026-04-29 03:09 | 46.93861 | 9.69747 | 38001 ft | 486 kts | 292° |
| 2026-04-29 03:10 | 46.96430 | 9.60593 | 38000 ft | 486 kts | 292° |
| 2026-04-29 03:10 | 46.98995 | 9.51422 | 38001 ft | 486 kts | 292° |
| 2026-04-29 03:11 | 47.01548 | 9.42257 | 38000 ft | 486 kts | 292° |
| 2026-04-29 03:11 | 47.04082 | 9.33123 | 38002 ft | 486 kts | 291° |
| 2026-04-29 03:12 | 47.06624 | 9.23929 | 38003 ft | 486 kts | 291° |
| 2026-04-29 03:12 | 47.09156 | 9.14736 | 37999 ft | 486 kts | 291° |
| 2026-04-29 03:13 | 47.11683 | 9.05523 | 38003 ft | 486 kts | 291° |
| 2026-04-29 03:13 | 47.14050 | 8.96862 | 38000 ft | 486 kts | 291° |
| 2026-04-29 03:14 | 47.16546 | 8.87625 | 38002 ft | 486 kts | 290° |
| 2026-04-29 03:14 | 47.18904 | 8.78311 | 38001 ft | 486 kts | 290° |
| 2026-04-29 03:15 | 47.21234 | 8.68983 | 38002 ft | 486 kts | 290° |
| 2026-04-29 03:15 | 47.23578 | 8.59655 | 38001 ft | 486 kts | 290° |
| 2026-04-29 03:16 | 47.25924 | 8.50313 | 38003 ft | 486 kts | 290° |
| 2026-04-29 03:16 | 47.28261 | 8.41022 | 37999 ft | 486 kts | 290° |
| 2026-04-29 03:17 | 47.30608 | 8.31682 | 38002 ft | 486 kts | 290° |
| 2026-04-29 03:17 | 47.32946 | 8.22328 | 38002 ft | 486 kts | 290° |
| 2026-04-29 03:18 | 47.35277 | 8.12961 | 38000 ft | 486 kts | 290° |
| 2026-04-29 03:18 | 47.37587 | 8.03643 | 38001 ft | 486 kts | 290° |
| 2026-04-29 03:19 | 47.39906 | 7.94252 | 38003 ft | 486 kts | 289° |
| 2026-04-29 03:19 | 47.42212 | 7.84873 | 38001 ft | 486 kts | 289° |
| 2026-04-29 03:20 | 47.44513 | 7.75476 | 38003 ft | 486 kts | 289° |
| 2026-04-29 03:20 | 47.46762 | 7.66125 | 38002 ft | 486 kts | 287° |
| 2026-04-29 03:21 | 47.48469 | 7.56468 | 38007 ft | 486 kts | 283° |
| 2026-04-29 03:21 | 47.50035 | 7.46745 | 38001 ft | 486 kts | 283° |
| 2026-04-29 03:22 | 47.51617 | 7.36998 | 38002 ft | 486 kts | 283° |
| 2026-04-29 03:22 | 47.53204 | 7.27332 | 38000 ft | 486 kts | 283° |
| 2026-04-29 03:23 | 47.54797 | 7.17619 | 38002 ft | 486 kts | 283° |
| 2026-04-29 03:23 | 47.56385 | 7.07881 | 38001 ft | 486 kts | 283° |
| 2026-04-29 03:24 | 47.57962 | 6.98144 | 38002 ft | 486 kts | 283° |
| 2026-04-29 03:24 | 47.59528 | 6.88413 | 38001 ft | 486 kts | 283° |
| 2026-04-29 03:25 | 47.61087 | 6.78673 | 38001 ft | 486 kts | 283° |
| 2026-04-29 03:25 | 47.62627 | 6.68990 | 38001 ft | 486 kts | 283° |
| 2026-04-29 03:26 | 47.64170 | 6.59232 | 38002 ft | 486 kts | 283° |
| 2026-04-29 03:26 | 47.65706 | 6.49466 | 38001 ft | 486 kts | 283° |
| 2026-04-29 03:27 | 47.67231 | 6.39708 | 38002 ft | 486 kts | 283° |
| 2026-04-29 03:27 | 47.68762 | 6.29920 | 38001 ft | 486 kts | 284° |
| 2026-04-29 03:28 | 47.70691 | 6.20359 | 38006 ft | 486 kts | 287° |
| 2026-04-29 03:28 | 47.72769 | 6.10790 | 38001 ft | 486 kts | 287° |
| 2026-04-29 03:29 | 47.74821 | 6.01221 | 38001 ft | 486 kts | 287° |
| 2026-04-29 03:29 | 47.76842 | 5.91629 | 38002 ft | 486 kts | 287° |
| 2026-04-29 03:30 | 47.78836 | 5.82086 | 38001 ft | 486 kts | 287° |
| 2026-04-29 03:30 | 47.80836 | 5.72472 | 38001 ft | 486 kts | 287° |
| 2026-04-29 03:31 | 47.83821 | 5.58048 | 38002 ft | 486 kts | 287° |
| 2026-04-29 03:31 | 47.85471 | 5.50035 | 38001 ft | 486 kts | 287° |
| 2026-04-29 03:32 | 47.87770 | 5.38812 | 38002 ft | 486 kts | 287° |
| 2026-04-29 03:32 | 47.89447 | 5.30824 | 37997 ft | 486 kts | 290° |
| 2026-04-29 03:33 | 47.92589 | 5.21921 | 38010 ft | 487 kts | 304° |
| 2026-04-29 03:33 | 47.96926 | 5.14179 | 38008 ft | 487 kts | 312° |
| 2026-04-29 03:34 | 48.01553 | 5.06759 | 38001 ft | 487 kts | 312° |
| 2026-04-29 03:34 | 48.06154 | 4.99282 | 38001 ft | 487 kts | 312° |
| 2026-04-29 03:35 | 48.10671 | 4.91815 | 38001 ft | 487 kts | 311° |
| 2026-04-29 03:35 | 48.15204 | 4.84274 | 38001 ft | 487 kts | 311° |
| 2026-04-29 03:36 | 48.19744 | 4.76708 | 38000 ft | 487 kts | 311° |
| 2026-04-29 03:36 | 48.24271 | 4.69146 | 38002 ft | 487 kts | 311° |
| 2026-04-29 03:37 | 48.28801 | 4.61558 | 38002 ft | 487 kts | 311° |
| 2026-04-29 03:37 | 48.33288 | 4.53997 | 38000 ft | 487 kts | 311° |
| 2026-04-29 03:38 | 48.37791 | 4.46378 | 38002 ft | 487 kts | 311° |
| 2026-04-29 03:38 | 48.42294 | 4.38739 | 38001 ft | 487 kts | 311° |
| 2026-04-29 03:39 | 48.46787 | 4.31096 | 38001 ft | 487 kts | 311° |
| 2026-04-29 03:39 | 48.51275 | 4.23441 | 38001 ft | 487 kts | 311° |
| 2026-04-29 03:40 | 48.55761 | 4.15767 | 38001 ft | 487 kts | 311° |
| 2026-04-29 03:40 | 48.60207 | 4.08138 | 38001 ft | 487 kts | 311° |
| 2026-04-29 03:41 | 48.64689 | 4.00425 | 38001 ft | 487 kts | 311° |
| 2026-04-29 03:41 | 48.69163 | 3.92704 | 38001 ft | 487 kts | 311° |
| 2026-04-29 03:42 | 48.73693 | 3.85075 | 37999 ft | 487 kts | 314° |
| 2026-04-29 03:42 | 48.78521 | 3.77858 | 38003 ft | 487 kts | 315° |
| 2026-04-29 03:43 | 48.83402 | 3.70700 | 38001 ft | 487 kts | 315° |
| 2026-04-29 03:43 | 48.88227 | 3.63555 | 38002 ft | 487 kts | 315° |
| 2026-04-29 03:44 | 48.93061 | 3.56327 | 38001 ft | 487 kts | 315° |
| 2026-04-29 03:44 | 48.97889 | 3.49071 | 38001 ft | 487 kts | 315° |
| 2026-04-29 03:45 | 49.02709 | 3.41808 | 38002 ft | 487 kts | 315° |
| 2026-04-29 03:45 | 49.07528 | 3.34530 | 38001 ft | 487 kts | 315° |
| 2026-04-29 03:46 | 49.12341 | 3.27239 | 38001 ft | 487 kts | 315° |
| 2026-04-29 03:46 | 49.17148 | 3.19937 | 38001 ft | 487 kts | 315° |
| 2026-04-29 03:47 | 49.21926 | 3.12659 | 38001 ft | 487 kts | 315° |
| 2026-04-29 03:47 | 49.26732 | 3.05315 | 38001 ft | 487 kts | 315° |
| 2026-04-29 03:48 | 49.31527 | 2.97967 | 38001 ft | 487 kts | 314° |
| 2026-04-29 03:48 | 49.36329 | 2.90587 | 38001 ft | 487 kts | 314° |
| 2026-04-29 03:49 | 49.41086 | 2.83253 | 38002 ft | 487 kts | 314° |
| 2026-04-29 03:49 | 49.45872 | 2.75854 | 38001 ft | 487 kts | 314° |
| 2026-04-29 03:50 | 49.50650 | 2.68446 | 38001 ft | 487 kts | 314° |
| 2026-04-29 03:50 | 49.55395 | 2.61066 | 38001 ft | 487 kts | 314° |
| 2026-04-29 03:51 | 49.60182 | 2.53670 | 38002 ft | 487 kts | 316° |
| 2026-04-29 03:51 | 49.65458 | 2.47082 | 38008 ft | 488 kts | 322° |
| 2026-04-29 03:52 | 49.70899 | 2.40818 | 38002 ft | 488 kts | 323° |
| 2026-04-29 03:52 | 49.76334 | 2.34506 | 38001 ft | 488 kts | 322° |
| 2026-04-29 03:53 | 49.81738 | 2.28140 | 38001 ft | 488 kts | 322° |
| 2026-04-29 03:53 | 49.87125 | 2.21753 | 38001 ft | 488 kts | 322° |
| 2026-04-29 03:54 | 49.92514 | 2.15347 | 38001 ft | 488 kts | 322° |
| 2026-04-29 03:54 | 49.97902 | 2.08926 | 38001 ft | 488 kts | 322° |
| 2026-04-29 03:55 | 50.03252 | 2.02535 | 38001 ft | 488 kts | 322° |
| 2026-04-29 03:55 | 50.08634 | 1.96085 | 38001 ft | 488 kts | 322° |
| 2026-04-29 03:56 | 50.14014 | 1.89621 | 38002 ft | 488 kts | 322° |
| 2026-04-29 03:56 | 50.19226 | 1.82864 | 38001 ft | 487 kts | 316° |
| 2026-04-29 03:57 | 50.24081 | 1.75443 | 38003 ft | 488 kts | 315° |
| 2026-04-29 03:57 | 50.28872 | 1.68018 | 38001 ft | 488 kts | 315° |
| 2026-04-29 03:58 | 50.33717 | 1.60576 | 38002 ft | 487 kts | 315° |
| 2026-04-29 03:58 | 50.38564 | 1.53147 | 38002 ft | 487 kts | 315° |
| 2026-04-29 03:59 | 50.43412 | 1.45693 | 38002 ft | 487 kts | 315° |
| 2026-04-29 03:59 | 50.48250 | 1.38228 | 38002 ft | 487 kts | 315° |
| 2026-04-29 04:00 | 50.52924 | 1.30605 | 38007 ft | 487 kts | 311° |
| 2026-04-29 04:00 | 50.57972 | 1.21858 | 37978 ft | 485 kts | 313° |